<?xml version="1.0" encoding="UTF-8" standalone="no" ?>
<gpx xmlns="http://www.topografix.com/GPX/1/1" xmlns:xsi="http://www.w3.org/2001/XMLSchema-instance" xsi:schemaLocation="http://www.topografix.com/GPX/1/1 http://www.topografix.com/GPX/1/1/gpx.xsd" version="1.1" creator="VisuGPX - https://www.visugpx.com">
  <metadata>
    <name>Manglieu 20km</name>
  </metadata>
  <trk>
    <name><![CDATA[Manglieu 20km]]></name>
    <trkseg>
      <trkpt lat="45.61146" lon="3.35091">
        <ele>429.23</ele>
        <time>2025-09-22T16:18:08.000Z</time>
      </trkpt>
      <trkpt lat="45.61128" lon="3.35127">
        <ele>428.75</ele>
        <time>2025-09-22T16:18:08.011Z</time>
      </trkpt>
      <trkpt lat="45.61109" lon="3.35164">
        <ele>428.06</ele>
        <time>2025-09-22T16:18:08.032Z</time>
      </trkpt>
      <trkpt lat="45.61107" lon="3.35168">
        <ele>427.58</ele>
        <time>2025-09-22T16:18:08.054Z</time>
      </trkpt>
      <trkpt lat="45.61107" lon="3.35168">
        <ele>427.19</ele>
        <time>2025-09-22T16:18:08.076Z</time>
      </trkpt>
      <trkpt lat="45.61094" lon="3.35186">
        <ele>426.88</ele>
        <time>2025-09-22T16:18:08.104Z</time>
      </trkpt>
      <trkpt lat="45.6109" lon="3.35192">
        <ele>426.63</ele>
        <time>2025-09-22T16:18:08.134Z</time>
      </trkpt>
      <trkpt lat="45.61081" lon="3.35205">
        <ele>426.4</ele>
        <time>2025-09-22T16:18:08.169Z</time>
      </trkpt>
      <trkpt lat="45.61063" lon="3.35235">
        <ele>426.28</ele>
        <time>2025-09-22T16:18:08.213Z</time>
      </trkpt>
      <trkpt lat="45.61045" lon="3.35264">
        <ele>426.09</ele>
        <time>2025-09-22T16:18:08.266Z</time>
      </trkpt>
      <trkpt lat="45.61027" lon="3.35293">
        <ele>425.77</ele>
        <time>2025-09-22T16:18:08.328Z</time>
      </trkpt>
      <trkpt lat="45.61009" lon="3.35322">
        <ele>425.37</ele>
        <time>2025-09-22T16:18:08.399Z</time>
      </trkpt>
      <trkpt lat="45.60991" lon="3.35351">
        <ele>425.02</ele>
        <time>2025-09-22T16:18:08.479Z</time>
      </trkpt>
      <trkpt lat="45.60985" lon="3.35362">
        <ele>424.69</ele>
        <time>2025-09-22T16:18:08.562Z</time>
      </trkpt>
      <trkpt lat="45.6097" lon="3.35396">
        <ele>424.41</ele>
        <time>2025-09-22T16:18:08.655Z</time>
      </trkpt>
      <trkpt lat="45.60955" lon="3.35431">
        <ele>424.24</ele>
        <time>2025-09-22T16:18:08.757Z</time>
      </trkpt>
      <trkpt lat="45.60942" lon="3.35452">
        <ele>424.01</ele>
        <time>2025-09-22T16:18:08.866Z</time>
      </trkpt>
      <trkpt lat="45.60918" lon="3.35467">
        <ele>423.81</ele>
        <time>2025-09-22T16:18:08.984Z</time>
      </trkpt>
      <trkpt lat="45.60896" lon="3.35478">
        <ele>423.55</ele>
        <time>2025-09-22T16:18:09.109Z</time>
      </trkpt>
      <trkpt lat="45.60873" lon="3.35489">
        <ele>423.34</ele>
        <time>2025-09-22T16:18:09.242Z</time>
      </trkpt>
      <trkpt lat="45.60854" lon="3.35504">
        <ele>423.08</ele>
        <time>2025-09-22T16:18:09.383Z</time>
      </trkpt>
      <trkpt lat="45.60836" lon="3.35533">
        <ele>422.78</ele>
        <time>2025-09-22T16:18:09.533Z</time>
      </trkpt>
      <trkpt lat="45.60819" lon="3.35563">
        <ele>422.47</ele>
        <time>2025-09-22T16:18:09.692Z</time>
      </trkpt>
      <trkpt lat="45.60801" lon="3.35593">
        <ele>422.36</ele>
        <time>2025-09-22T16:18:09.860Z</time>
      </trkpt>
      <trkpt lat="45.60784" lon="3.35623">
        <ele>422.29</ele>
        <time>2025-09-22T16:18:10.037Z</time>
      </trkpt>
      <trkpt lat="45.60766" lon="3.35652">
        <ele>422.09</ele>
        <time>2025-09-22T16:18:10.223Z</time>
      </trkpt>
      <trkpt lat="45.60749" lon="3.35682">
        <ele>421.79</ele>
        <time>2025-09-22T16:18:10.418Z</time>
      </trkpt>
      <trkpt lat="45.60732" lon="3.35712">
        <ele>421.63</ele>
        <time>2025-09-22T16:18:10.622Z</time>
      </trkpt>
      <trkpt lat="45.60712" lon="3.35745">
        <ele>421.51</ele>
        <time>2025-09-22T16:18:10.837Z</time>
      </trkpt>
      <trkpt lat="45.60692" lon="3.35779">
        <ele>421.43</ele>
        <time>2025-09-22T16:18:11.062Z</time>
      </trkpt>
      <trkpt lat="45.60672" lon="3.35813">
        <ele>421.39</ele>
        <time>2025-09-22T16:18:11.297Z</time>
      </trkpt>
      <trkpt lat="45.60651" lon="3.35846">
        <ele>421.51</ele>
        <time>2025-09-22T16:18:11.543Z</time>
      </trkpt>
      <trkpt lat="45.60631" lon="3.3588">
        <ele>421.72</ele>
        <time>2025-09-22T16:18:11.799Z</time>
      </trkpt>
      <trkpt lat="45.60611" lon="3.35913">
        <ele>421.76</ele>
        <time>2025-09-22T16:18:12.065Z</time>
      </trkpt>
      <trkpt lat="45.60613" lon="3.35946">
        <ele>421.89</ele>
        <time>2025-09-22T16:18:12.339Z</time>
      </trkpt>
      <trkpt lat="45.60614" lon="3.35978">
        <ele>421.92</ele>
        <time>2025-09-22T16:18:12.620Z</time>
      </trkpt>
      <trkpt lat="45.60611" lon="3.36003">
        <ele>422</ele>
        <time>2025-09-22T16:18:12.907Z</time>
      </trkpt>
      <trkpt lat="45.60609" lon="3.36027">
        <ele>422.13</ele>
        <time>2025-09-22T16:18:13.200Z</time>
      </trkpt>
      <trkpt lat="45.60598" lon="3.36063">
        <ele>422.26</ele>
        <time>2025-09-22T16:18:13.502Z</time>
      </trkpt>
      <trkpt lat="45.60586" lon="3.36099">
        <ele>422.29</ele>
        <time>2025-09-22T16:18:13.813Z</time>
      </trkpt>
      <trkpt lat="45.60575" lon="3.36134">
        <ele>422.36</ele>
        <time>2025-09-22T16:18:14.134Z</time>
      </trkpt>
      <trkpt lat="45.60563" lon="3.36161">
        <ele>422.48</ele>
        <time>2025-09-22T16:18:14.462Z</time>
      </trkpt>
      <trkpt lat="45.60551" lon="3.36188">
        <ele>422.68</ele>
        <time>2025-09-22T16:18:14.797Z</time>
      </trkpt>
      <trkpt lat="45.60546" lon="3.36221">
        <ele>422.9</ele>
        <time>2025-09-22T16:18:15.140Z</time>
      </trkpt>
      <trkpt lat="45.6054" lon="3.36254">
        <ele>423.16</ele>
        <time>2025-09-22T16:18:15.491Z</time>
      </trkpt>
      <trkpt lat="45.60534" lon="3.36287">
        <ele>423.57</ele>
        <time>2025-09-22T16:18:15.850Z</time>
      </trkpt>
      <trkpt lat="45.6052" lon="3.36324">
        <ele>424.03</ele>
        <time>2025-09-22T16:18:16.219Z</time>
      </trkpt>
      <trkpt lat="45.60505" lon="3.36361">
        <ele>424.5</ele>
        <time>2025-09-22T16:18:16.598Z</time>
      </trkpt>
      <trkpt lat="45.60491" lon="3.36398">
        <ele>425.26</ele>
        <time>2025-09-22T16:18:16.987Z</time>
      </trkpt>
      <trkpt lat="45.60476" lon="3.36435">
        <ele>426.07</ele>
        <time>2025-09-22T16:18:17.386Z</time>
      </trkpt>
      <trkpt lat="45.6047" lon="3.36464">
        <ele>426.99</ele>
        <time>2025-09-22T16:18:17.792Z</time>
      </trkpt>
      <trkpt lat="45.60463" lon="3.36493">
        <ele>428.04</ele>
        <time>2025-09-22T16:18:18.205Z</time>
      </trkpt>
      <trkpt lat="45.60451" lon="3.36531">
        <ele>429.2</ele>
        <time>2025-09-22T16:18:18.628Z</time>
      </trkpt>
      <trkpt lat="45.60451" lon="3.36531">
        <ele>430.29</ele>
        <time>2025-09-22T16:18:19.051Z</time>
      </trkpt>
      <trkpt lat="45.60441" lon="3.36556">
        <ele>431.53</ele>
        <time>2025-09-22T16:18:19.481Z</time>
      </trkpt>
      <trkpt lat="45.60441" lon="3.36556">
        <ele>432.78</ele>
        <time>2025-09-22T16:18:19.911Z</time>
      </trkpt>
      <trkpt lat="45.60431" lon="3.36583">
        <ele>434.14</ele>
        <time>2025-09-22T16:18:20.348Z</time>
      </trkpt>
      <trkpt lat="45.60431" lon="3.36596">
        <ele>435.59</ele>
        <time>2025-09-22T16:18:20.788Z</time>
      </trkpt>
      <trkpt lat="45.6044" lon="3.36607">
        <ele>437.23</ele>
        <time>2025-09-22T16:18:21.232Z</time>
      </trkpt>
      <trkpt lat="45.60466" lon="3.36609">
        <ele>439.12</ele>
        <time>2025-09-22T16:18:21.684Z</time>
      </trkpt>
      <trkpt lat="45.60482" lon="3.36614">
        <ele>441.06</ele>
        <time>2025-09-22T16:18:22.142Z</time>
      </trkpt>
      <trkpt lat="45.60498" lon="3.36619">
        <ele>443.13</ele>
        <time>2025-09-22T16:18:22.605Z</time>
      </trkpt>
      <trkpt lat="45.605" lon="3.36624">
        <ele>445.18</ele>
        <time>2025-09-22T16:18:23.069Z</time>
      </trkpt>
      <trkpt lat="45.60515" lon="3.36617">
        <ele>447.49</ele>
        <time>2025-09-22T16:18:23.539Z</time>
      </trkpt>
      <trkpt lat="45.60526" lon="3.36619">
        <ele>449.83</ele>
        <time>2025-09-22T16:18:24.012Z</time>
      </trkpt>
      <trkpt lat="45.60551" lon="3.36629">
        <ele>452.43</ele>
        <time>2025-09-22T16:18:24.494Z</time>
      </trkpt>
      <trkpt lat="45.60577" lon="3.36639">
        <ele>455.2</ele>
        <time>2025-09-22T16:18:24.985Z</time>
      </trkpt>
      <trkpt lat="45.60598" lon="3.3665">
        <ele>458.08</ele>
        <time>2025-09-22T16:18:25.483Z</time>
      </trkpt>
      <trkpt lat="45.60618" lon="3.36662">
        <ele>461.08</ele>
        <time>2025-09-22T16:18:25.989Z</time>
      </trkpt>
      <trkpt lat="45.60641" lon="3.36679">
        <ele>464.21</ele>
        <time>2025-09-22T16:18:26.503Z</time>
      </trkpt>
      <trkpt lat="45.60648" lon="3.36684">
        <ele>467.31</ele>
        <time>2025-09-22T16:18:27.020Z</time>
      </trkpt>
      <trkpt lat="45.60659" lon="3.36707">
        <ele>470.55</ele>
        <time>2025-09-22T16:18:27.543Z</time>
      </trkpt>
      <trkpt lat="45.60669" lon="3.36731">
        <ele>473.88</ele>
        <time>2025-09-22T16:18:28.073Z</time>
      </trkpt>
      <trkpt lat="45.60687" lon="3.36757">
        <ele>477.35</ele>
        <time>2025-09-22T16:18:28.611Z</time>
      </trkpt>
      <trkpt lat="45.60711" lon="3.36778">
        <ele>480.92</ele>
        <time>2025-09-22T16:18:29.159Z</time>
      </trkpt>
      <trkpt lat="45.60736" lon="3.368">
        <ele>484.48</ele>
        <time>2025-09-22T16:18:29.716Z</time>
      </trkpt>
      <trkpt lat="45.6076" lon="3.36821">
        <ele>487.96</ele>
        <time>2025-09-22T16:18:30.283Z</time>
      </trkpt>
      <trkpt lat="45.60784" lon="3.36843">
        <ele>491.53</ele>
        <time>2025-09-22T16:18:30.860Z</time>
      </trkpt>
      <trkpt lat="45.60809" lon="3.36864">
        <ele>495.22</ele>
        <time>2025-09-22T16:18:31.446Z</time>
      </trkpt>
      <trkpt lat="45.6081" lon="3.36856">
        <ele>498.66</ele>
        <time>2025-09-22T16:18:32.034Z</time>
      </trkpt>
      <trkpt lat="45.60832" lon="3.36888">
        <ele>502.21</ele>
        <time>2025-09-22T16:18:32.633Z</time>
      </trkpt>
      <trkpt lat="45.60847" lon="3.36911">
        <ele>505.73</ele>
        <time>2025-09-22T16:18:33.239Z</time>
      </trkpt>
      <trkpt lat="45.6087" lon="3.36942">
        <ele>509.33</ele>
        <time>2025-09-22T16:18:33.856Z</time>
      </trkpt>
      <trkpt lat="45.60892" lon="3.36973">
        <ele>512.96</ele>
        <time>2025-09-22T16:18:34.483Z</time>
      </trkpt>
      <trkpt lat="45.60895" lon="3.36977">
        <ele>516.34</ele>
        <time>2025-09-22T16:18:35.111Z</time>
      </trkpt>
      <trkpt lat="45.60912" lon="3.37014">
        <ele>519.72</ele>
        <time>2025-09-22T16:18:35.750Z</time>
      </trkpt>
      <trkpt lat="45.60914" lon="3.3702">
        <ele>523.03</ele>
        <time>2025-09-22T16:18:36.390Z</time>
      </trkpt>
      <trkpt lat="45.60943" lon="3.37">
        <ele>526.62</ele>
        <time>2025-09-22T16:18:37.041Z</time>
      </trkpt>
      <trkpt lat="45.60951" lon="3.36994">
        <ele>529.95</ele>
        <time>2025-09-22T16:18:37.695Z</time>
      </trkpt>
      <trkpt lat="45.60974" lon="3.36963">
        <ele>533.55</ele>
        <time>2025-09-22T16:18:38.359Z</time>
      </trkpt>
      <trkpt lat="45.60997" lon="3.36933">
        <ele>536.97</ele>
        <time>2025-09-22T16:18:39.034Z</time>
      </trkpt>
      <trkpt lat="45.61001" lon="3.36928">
        <ele>540.04</ele>
        <time>2025-09-22T16:18:39.710Z</time>
      </trkpt>
      <trkpt lat="45.61027" lon="3.36903">
        <ele>543.28</ele>
        <time>2025-09-22T16:18:40.397Z</time>
      </trkpt>
      <trkpt lat="45.61053" lon="3.36878">
        <ele>546.41</ele>
        <time>2025-09-22T16:18:41.094Z</time>
      </trkpt>
      <trkpt lat="45.61056" lon="3.36875">
        <ele>549.08</ele>
        <time>2025-09-22T16:18:41.793Z</time>
      </trkpt>
      <trkpt lat="45.61087" lon="3.3688">
        <ele>551.82</ele>
        <time>2025-09-22T16:18:42.502Z</time>
      </trkpt>
      <trkpt lat="45.61118" lon="3.36885">
        <ele>554.49</ele>
        <time>2025-09-22T16:18:43.222Z</time>
      </trkpt>
      <trkpt lat="45.61134" lon="3.36888">
        <ele>556.62</ele>
        <time>2025-09-22T16:18:43.947Z</time>
      </trkpt>
      <trkpt lat="45.61134" lon="3.36843">
        <ele>558.73</ele>
        <time>2025-09-22T16:18:44.682Z</time>
      </trkpt>
      <trkpt lat="45.61134" lon="3.36843">
        <ele>560.23</ele>
        <time>2025-09-22T16:18:45.417Z</time>
      </trkpt>
      <trkpt lat="45.6114" lon="3.36798">
        <ele>561.73</ele>
        <time>2025-09-22T16:18:46.163Z</time>
      </trkpt>
      <trkpt lat="45.61142" lon="3.36785">
        <ele>562.73</ele>
        <time>2025-09-22T16:18:46.912Z</time>
      </trkpt>
      <trkpt lat="45.61158" lon="3.36749">
        <ele>563.62</ele>
        <time>2025-09-22T16:18:47.671Z</time>
      </trkpt>
      <trkpt lat="45.61182" lon="3.36719">
        <ele>564.19</ele>
        <time>2025-09-22T16:18:48.441Z</time>
      </trkpt>
      <trkpt lat="45.6119" lon="3.3671">
        <ele>564.25</ele>
        <time>2025-09-22T16:18:49.214Z</time>
      </trkpt>
      <trkpt lat="45.61188" lon="3.36672">
        <ele>563.99</ele>
        <time>2025-09-22T16:18:49.996Z</time>
      </trkpt>
      <trkpt lat="45.61179" lon="3.36629">
        <ele>563.26</ele>
        <time>2025-09-22T16:18:50.788Z</time>
      </trkpt>
      <trkpt lat="45.61177" lon="3.36618">
        <ele>562.38</ele>
        <time>2025-09-22T16:18:51.583Z</time>
      </trkpt>
      <trkpt lat="45.61195" lon="3.36582">
        <ele>561.13</ele>
        <time>2025-09-22T16:18:52.388Z</time>
      </trkpt>
      <trkpt lat="45.61213" lon="3.36545">
        <ele>559.86</ele>
        <time>2025-09-22T16:18:53.204Z</time>
      </trkpt>
      <trkpt lat="45.61218" lon="3.36535">
        <ele>558.59</ele>
        <time>2025-09-22T16:18:54.023Z</time>
      </trkpt>
      <trkpt lat="45.61233" lon="3.36495">
        <ele>556.91</ele>
        <time>2025-09-22T16:18:54.852Z</time>
      </trkpt>
      <trkpt lat="45.61239" lon="3.3648">
        <ele>555.49</ele>
        <time>2025-09-22T16:18:55.685Z</time>
      </trkpt>
      <trkpt lat="45.61244" lon="3.36451">
        <ele>554.03</ele>
        <time>2025-09-22T16:18:56.525Z</time>
      </trkpt>
      <trkpt lat="45.61233" lon="3.36431">
        <ele>552.63</ele>
        <time>2025-09-22T16:18:57.371Z</time>
      </trkpt>
      <trkpt lat="45.61227" lon="3.36406">
        <ele>551.36</ele>
        <time>2025-09-22T16:18:58.224Z</time>
      </trkpt>
      <trkpt lat="45.61239" lon="3.36378">
        <ele>550.35</ele>
        <time>2025-09-22T16:18:59.084Z</time>
      </trkpt>
      <trkpt lat="45.61257" lon="3.36341">
        <ele>549.68</ele>
        <time>2025-09-22T16:18:59.955Z</time>
      </trkpt>
      <trkpt lat="45.61275" lon="3.36304">
        <ele>549.35</ele>
        <time>2025-09-22T16:19:00.836Z</time>
      </trkpt>
      <trkpt lat="45.6129" lon="3.36275">
        <ele>549.31</ele>
        <time>2025-09-22T16:19:01.726Z</time>
      </trkpt>
      <trkpt lat="45.61301" lon="3.36257">
        <ele>549.54</ele>
        <time>2025-09-22T16:19:02.621Z</time>
      </trkpt>
      <trkpt lat="45.61295" lon="3.36301">
        <ele>550.14</ele>
        <time>2025-09-22T16:19:03.527Z</time>
      </trkpt>
      <trkpt lat="45.61295" lon="3.36302">
        <ele>550.91</ele>
        <time>2025-09-22T16:19:04.433Z</time>
      </trkpt>
      <trkpt lat="45.61291" lon="3.36346">
        <ele>552.23</ele>
        <time>2025-09-22T16:19:05.350Z</time>
      </trkpt>
      <trkpt lat="45.6129" lon="3.36359">
        <ele>553.64</ele>
        <time>2025-09-22T16:19:06.270Z</time>
      </trkpt>
      <trkpt lat="45.61302" lon="3.364">
        <ele>555.69</ele>
        <time>2025-09-22T16:19:07.200Z</time>
      </trkpt>
      <trkpt lat="45.61311" lon="3.36429">
        <ele>557.74</ele>
        <time>2025-09-22T16:19:08.137Z</time>
      </trkpt>
      <trkpt lat="45.61321" lon="3.36472">
        <ele>560.15</ele>
        <time>2025-09-22T16:19:09.085Z</time>
      </trkpt>
      <trkpt lat="45.61323" lon="3.36481">
        <ele>562.47</ele>
        <time>2025-09-22T16:19:10.035Z</time>
      </trkpt>
      <trkpt lat="45.61308" lon="3.36519">
        <ele>565.12</ele>
        <time>2025-09-22T16:19:10.995Z</time>
      </trkpt>
      <trkpt lat="45.61286" lon="3.36551">
        <ele>568.02</ele>
        <time>2025-09-22T16:19:11.966Z</time>
      </trkpt>
      <trkpt lat="45.61281" lon="3.36559">
        <ele>570.81</ele>
        <time>2025-09-22T16:19:12.940Z</time>
      </trkpt>
      <trkpt lat="45.61266" lon="3.36599">
        <ele>573.82</ele>
        <time>2025-09-22T16:19:13.924Z</time>
      </trkpt>
      <trkpt lat="45.61256" lon="3.36624">
        <ele>576.68</ele>
        <time>2025-09-22T16:19:14.915Z</time>
      </trkpt>
      <trkpt lat="45.61277" lon="3.36656">
        <ele>579.88</ele>
        <time>2025-09-22T16:19:15.916Z</time>
      </trkpt>
      <trkpt lat="45.61278" lon="3.36658">
        <ele>582.82</ele>
        <time>2025-09-22T16:19:16.918Z</time>
      </trkpt>
      <trkpt lat="45.61289" lon="3.367">
        <ele>585.81</ele>
        <time>2025-09-22T16:19:17.930Z</time>
      </trkpt>
      <trkpt lat="45.6129" lon="3.36707">
        <ele>588.72</ele>
        <time>2025-09-22T16:19:18.944Z</time>
      </trkpt>
      <trkpt lat="45.6131" lon="3.36741">
        <ele>591.6</ele>
        <time>2025-09-22T16:19:19.968Z</time>
      </trkpt>
      <trkpt lat="45.61339" lon="3.36722">
        <ele>594.69</ele>
        <time>2025-09-22T16:19:21.003Z</time>
      </trkpt>
      <trkpt lat="45.61341" lon="3.3672">
        <ele>597.47</ele>
        <time>2025-09-22T16:19:22.039Z</time>
      </trkpt>
      <trkpt lat="45.61371" lon="3.36706">
        <ele>600.22</ele>
        <time>2025-09-22T16:19:23.085Z</time>
      </trkpt>
      <trkpt lat="45.61384" lon="3.367">
        <ele>602.84</ele>
        <time>2025-09-22T16:19:24.136Z</time>
      </trkpt>
      <trkpt lat="45.61411" lon="3.36677">
        <ele>605.39</ele>
        <time>2025-09-22T16:19:25.197Z</time>
      </trkpt>
      <trkpt lat="45.61419" lon="3.36671">
        <ele>607.8</ele>
        <time>2025-09-22T16:19:26.261Z</time>
      </trkpt>
      <trkpt lat="45.61447" lon="3.36658">
        <ele>610.05</ele>
        <time>2025-09-22T16:19:27.335Z</time>
      </trkpt>
      <trkpt lat="45.61458" lon="3.36622">
        <ele>612.4</ele>
        <time>2025-09-22T16:19:28.418Z</time>
      </trkpt>
      <trkpt lat="45.61461" lon="3.366">
        <ele>614.35</ele>
        <time>2025-09-22T16:19:29.506Z</time>
      </trkpt>
      <trkpt lat="45.61483" lon="3.3658">
        <ele>616.15</ele>
        <time>2025-09-22T16:19:30.603Z</time>
      </trkpt>
      <trkpt lat="45.6149" lon="3.36558">
        <ele>617.56</ele>
        <time>2025-09-22T16:19:31.706Z</time>
      </trkpt>
      <trkpt lat="45.61479" lon="3.36532">
        <ele>618.61</ele>
        <time>2025-09-22T16:19:32.816Z</time>
      </trkpt>
      <trkpt lat="45.61473" lon="3.36511">
        <ele>619.23</ele>
        <time>2025-09-22T16:19:33.931Z</time>
      </trkpt>
      <trkpt lat="45.61484" lon="3.36477">
        <ele>619.69</ele>
        <time>2025-09-22T16:19:35.055Z</time>
      </trkpt>
      <trkpt lat="45.61507" lon="3.36473">
        <ele>620.09</ele>
        <time>2025-09-22T16:19:36.186Z</time>
      </trkpt>
      <trkpt lat="45.6153" lon="3.36469">
        <ele>620.01</ele>
        <time>2025-09-22T16:19:37.325Z</time>
      </trkpt>
      <trkpt lat="45.61553" lon="3.36454">
        <ele>619.44</ele>
        <time>2025-09-22T16:19:38.473Z</time>
      </trkpt>
      <trkpt lat="45.61566" lon="3.36444">
        <ele>618.45</ele>
        <time>2025-09-22T16:19:39.626Z</time>
      </trkpt>
      <trkpt lat="45.61575" lon="3.36435">
        <ele>617.17</ele>
        <time>2025-09-22T16:19:40.782Z</time>
      </trkpt>
      <trkpt lat="45.61576" lon="3.36421">
        <ele>615.47</ele>
        <time>2025-09-22T16:19:41.942Z</time>
      </trkpt>
      <trkpt lat="45.61568" lon="3.36412">
        <ele>613.51</ele>
        <time>2025-09-22T16:19:43.105Z</time>
      </trkpt>
      <trkpt lat="45.61554" lon="3.36411">
        <ele>611.24</ele>
        <time>2025-09-22T16:19:44.272Z</time>
      </trkpt>
      <trkpt lat="45.61535" lon="3.36418">
        <ele>608.68</ele>
        <time>2025-09-22T16:19:45.446Z</time>
      </trkpt>
      <trkpt lat="45.61518" lon="3.36411">
        <ele>605.67</ele>
        <time>2025-09-22T16:19:46.626Z</time>
      </trkpt>
      <trkpt lat="45.61496" lon="3.36387">
        <ele>602.18</ele>
        <time>2025-09-22T16:19:47.815Z</time>
      </trkpt>
      <trkpt lat="45.61481" lon="3.36373">
        <ele>598.72</ele>
        <time>2025-09-22T16:19:49.010Z</time>
      </trkpt>
      <trkpt lat="45.6148" lon="3.36355">
        <ele>595.18</ele>
        <time>2025-09-22T16:19:50.209Z</time>
      </trkpt>
      <trkpt lat="45.61481" lon="3.36321">
        <ele>591.4</ele>
        <time>2025-09-22T16:19:51.417Z</time>
      </trkpt>
      <trkpt lat="45.61486" lon="3.36283">
        <ele>587.69</ele>
        <time>2025-09-22T16:19:52.633Z</time>
      </trkpt>
      <trkpt lat="45.61488" lon="3.36259">
        <ele>584.01</ele>
        <time>2025-09-22T16:19:53.855Z</time>
      </trkpt>
      <trkpt lat="45.615" lon="3.36225">
        <ele>580.32</ele>
        <time>2025-09-22T16:19:55.086Z</time>
      </trkpt>
      <trkpt lat="45.61516" lon="3.36186">
        <ele>576.59</ele>
        <time>2025-09-22T16:19:56.327Z</time>
      </trkpt>
      <trkpt lat="45.61517" lon="3.36183">
        <ele>572.96</ele>
        <time>2025-09-22T16:19:57.569Z</time>
      </trkpt>
      <trkpt lat="45.61539" lon="3.36151">
        <ele>569.26</ele>
        <time>2025-09-22T16:19:58.822Z</time>
      </trkpt>
      <trkpt lat="45.61554" lon="3.3613">
        <ele>565.57</ele>
        <time>2025-09-22T16:20:00.082Z</time>
      </trkpt>
      <trkpt lat="45.61574" lon="3.36096">
        <ele>561.85</ele>
        <time>2025-09-22T16:20:01.352Z</time>
      </trkpt>
      <trkpt lat="45.61579" lon="3.36088">
        <ele>558.28</ele>
        <time>2025-09-22T16:20:02.625Z</time>
      </trkpt>
      <trkpt lat="45.61591" lon="3.36055">
        <ele>554.6</ele>
        <time>2025-09-22T16:20:03.906Z</time>
      </trkpt>
      <trkpt lat="45.61614" lon="3.36028">
        <ele>550.96</ele>
        <time>2025-09-22T16:20:05.197Z</time>
      </trkpt>
      <trkpt lat="45.61645" lon="3.36019">
        <ele>547.4</ele>
        <time>2025-09-22T16:20:06.499Z</time>
      </trkpt>
      <trkpt lat="45.6166" lon="3.36014">
        <ele>544.03</ele>
        <time>2025-09-22T16:20:07.806Z</time>
      </trkpt>
      <trkpt lat="45.6169" lon="3.36024">
        <ele>540.78</ele>
        <time>2025-09-22T16:20:09.124Z</time>
      </trkpt>
      <trkpt lat="45.6171" lon="3.3603">
        <ele>537.62</ele>
        <time>2025-09-22T16:20:10.448Z</time>
      </trkpt>
      <trkpt lat="45.61741" lon="3.3602">
        <ele>534.41</ele>
        <time>2025-09-22T16:20:11.783Z</time>
      </trkpt>
      <trkpt lat="45.61756" lon="3.36015">
        <ele>531.5</ele>
        <time>2025-09-22T16:20:13.123Z</time>
      </trkpt>
      <trkpt lat="45.61788" lon="3.36008">
        <ele>528.54</ele>
        <time>2025-09-22T16:20:14.474Z</time>
      </trkpt>
      <trkpt lat="45.61819" lon="3.36001">
        <ele>525.63</ele>
        <time>2025-09-22T16:20:15.835Z</time>
      </trkpt>
      <trkpt lat="45.61822" lon="3.36">
        <ele>523.2</ele>
        <time>2025-09-22T16:20:17.197Z</time>
      </trkpt>
      <trkpt lat="45.61823" lon="3.35999">
        <ele>520.98</ele>
        <time>2025-09-22T16:20:18.560Z</time>
      </trkpt>
      <trkpt lat="45.61845" lon="3.36019">
        <ele>518.73</ele>
        <time>2025-09-22T16:20:19.932Z</time>
      </trkpt>
      <trkpt lat="45.61858" lon="3.36044">
        <ele>516.8</ele>
        <time>2025-09-22T16:20:21.311Z</time>
      </trkpt>
      <trkpt lat="45.61858" lon="3.36073">
        <ele>515.18</ele>
        <time>2025-09-22T16:20:22.697Z</time>
      </trkpt>
      <trkpt lat="45.61858" lon="3.36102">
        <ele>513.69</ele>
        <time>2025-09-22T16:20:24.090Z</time>
      </trkpt>
      <trkpt lat="45.61861" lon="3.36139">
        <ele>512.31</ele>
        <time>2025-09-22T16:20:25.491Z</time>
      </trkpt>
      <trkpt lat="45.61864" lon="3.36175">
        <ele>510.87</ele>
        <time>2025-09-22T16:20:26.901Z</time>
      </trkpt>
      <trkpt lat="45.61867" lon="3.36212">
        <ele>509.59</ele>
        <time>2025-09-22T16:20:28.319Z</time>
      </trkpt>
      <trkpt lat="45.61863" lon="3.36243">
        <ele>508.59</ele>
        <time>2025-09-22T16:20:29.745Z</time>
      </trkpt>
      <trkpt lat="45.6186" lon="3.36273">
        <ele>508.07</ele>
        <time>2025-09-22T16:20:31.178Z</time>
      </trkpt>
      <trkpt lat="45.61856" lon="3.36304">
        <ele>507.74</ele>
        <time>2025-09-22T16:20:32.618Z</time>
      </trkpt>
      <trkpt lat="45.61856" lon="3.36328">
        <ele>507.51</ele>
        <time>2025-09-22T16:20:34.064Z</time>
      </trkpt>
      <trkpt lat="45.61856" lon="3.36351">
        <ele>507.42</ele>
        <time>2025-09-22T16:20:35.515Z</time>
      </trkpt>
      <trkpt lat="45.61863" lon="3.36387">
        <ele>507.36</ele>
        <time>2025-09-22T16:20:36.975Z</time>
      </trkpt>
      <trkpt lat="45.6187" lon="3.36422">
        <ele>507.58</ele>
        <time>2025-09-22T16:20:38.443Z</time>
      </trkpt>
      <trkpt lat="45.61877" lon="3.36458">
        <ele>508.05</ele>
        <time>2025-09-22T16:20:39.920Z</time>
      </trkpt>
      <trkpt lat="45.61884" lon="3.36493">
        <ele>508.77</ele>
        <time>2025-09-22T16:20:41.406Z</time>
      </trkpt>
      <trkpt lat="45.61908" lon="3.36516">
        <ele>509.51</ele>
        <time>2025-09-22T16:20:42.901Z</time>
      </trkpt>
      <trkpt lat="45.61926" lon="3.36523">
        <ele>510.34</ele>
        <time>2025-09-22T16:20:44.403Z</time>
      </trkpt>
      <trkpt lat="45.61944" lon="3.36529">
        <ele>511.19</ele>
        <time>2025-09-22T16:20:45.911Z</time>
      </trkpt>
      <trkpt lat="45.61962" lon="3.36539">
        <ele>512.17</ele>
        <time>2025-09-22T16:20:47.425Z</time>
      </trkpt>
      <trkpt lat="45.6198" lon="3.36549">
        <ele>513.27</ele>
        <time>2025-09-22T16:20:48.946Z</time>
      </trkpt>
      <trkpt lat="45.61994" lon="3.36559">
        <ele>514.48</ele>
        <time>2025-09-22T16:20:50.472Z</time>
      </trkpt>
      <trkpt lat="45.62008" lon="3.3657">
        <ele>515.71</ele>
        <time>2025-09-22T16:20:52.003Z</time>
      </trkpt>
      <trkpt lat="45.62003" lon="3.36591">
        <ele>516.98</ele>
        <time>2025-09-22T16:20:53.540Z</time>
      </trkpt>
      <trkpt lat="45.62002" lon="3.36594">
        <ele>518.19</ele>
        <time>2025-09-22T16:20:55.077Z</time>
      </trkpt>
      <trkpt lat="45.61984" lon="3.3663">
        <ele>519.42</ele>
        <time>2025-09-22T16:20:56.625Z</time>
      </trkpt>
      <trkpt lat="45.61967" lon="3.36666">
        <ele>520.62</ele>
        <time>2025-09-22T16:20:58.183Z</time>
      </trkpt>
      <trkpt lat="45.61949" lon="3.36702">
        <ele>521.82</ele>
        <time>2025-09-22T16:20:59.751Z</time>
      </trkpt>
      <trkpt lat="45.61931" lon="3.36738">
        <ele>523</ele>
        <time>2025-09-22T16:21:01.329Z</time>
      </trkpt>
      <trkpt lat="45.61914" lon="3.36774">
        <ele>524.27</ele>
        <time>2025-09-22T16:21:02.918Z</time>
      </trkpt>
      <trkpt lat="45.61914" lon="3.36782">
        <ele>524.94</ele>
        <time>2025-09-22T16:21:04.509Z</time>
      </trkpt>
      <trkpt lat="45.61923" lon="3.3681">
        <ele>525.3</ele>
        <time>2025-09-22T16:21:06.107Z</time>
      </trkpt>
      <trkpt lat="45.6194" lon="3.36845">
        <ele>525.24</ele>
        <time>2025-09-22T16:21:07.715Z</time>
      </trkpt>
      <trkpt lat="45.61958" lon="3.36881">
        <ele>525.03</ele>
        <time>2025-09-22T16:21:09.333Z</time>
      </trkpt>
      <trkpt lat="45.61976" lon="3.36915">
        <ele>524.61</ele>
        <time>2025-09-22T16:21:10.961Z</time>
      </trkpt>
      <trkpt lat="45.61977" lon="3.36941">
        <ele>524.03</ele>
        <time>2025-09-22T16:21:12.595Z</time>
      </trkpt>
      <trkpt lat="45.61978" lon="3.36967">
        <ele>523.25</ele>
        <time>2025-09-22T16:21:14.235Z</time>
      </trkpt>
      <trkpt lat="45.61986" lon="3.36992">
        <ele>522.08</ele>
        <time>2025-09-22T16:21:15.882Z</time>
      </trkpt>
      <trkpt lat="45.61993" lon="3.37016">
        <ele>520.65</ele>
        <time>2025-09-22T16:21:17.535Z</time>
      </trkpt>
      <trkpt lat="45.61998" lon="3.37042">
        <ele>518.95</ele>
        <time>2025-09-22T16:21:19.194Z</time>
      </trkpt>
      <trkpt lat="45.61991" lon="3.37066">
        <ele>516.97</ele>
        <time>2025-09-22T16:21:20.859Z</time>
      </trkpt>
      <trkpt lat="45.61987" lon="3.37067">
        <ele>514.79</ele>
        <time>2025-09-22T16:21:22.525Z</time>
      </trkpt>
      <trkpt lat="45.62001" lon="3.37081">
        <ele>512.32</ele>
        <time>2025-09-22T16:21:24.197Z</time>
      </trkpt>
      <trkpt lat="45.62009" lon="3.37124">
        <ele>509.32</ele>
        <time>2025-09-22T16:21:25.880Z</time>
      </trkpt>
      <trkpt lat="45.62009" lon="3.37129">
        <ele>506.38</ele>
        <time>2025-09-22T16:21:27.564Z</time>
      </trkpt>
      <trkpt lat="45.62015" lon="3.37164">
        <ele>502.92</ele>
        <time>2025-09-22T16:21:29.256Z</time>
      </trkpt>
      <trkpt lat="45.62036" lon="3.37177">
        <ele>499.48</ele>
        <time>2025-09-22T16:21:30.956Z</time>
      </trkpt>
      <trkpt lat="45.6206" lon="3.37175">
        <ele>496.06</ele>
        <time>2025-09-22T16:21:32.664Z</time>
      </trkpt>
      <trkpt lat="45.6206" lon="3.37203">
        <ele>492.25</ele>
        <time>2025-09-22T16:21:34.378Z</time>
      </trkpt>
      <trkpt lat="45.62059" lon="3.37216">
        <ele>488.59</ele>
        <time>2025-09-22T16:21:36.095Z</time>
      </trkpt>
      <trkpt lat="45.62087" lon="3.37236">
        <ele>484.54</ele>
        <time>2025-09-22T16:21:37.823Z</time>
      </trkpt>
      <trkpt lat="45.62093" lon="3.37241">
        <ele>480.87</ele>
        <time>2025-09-22T16:21:39.553Z</time>
      </trkpt>
      <trkpt lat="45.62117" lon="3.3725">
        <ele>477.12</ele>
        <time>2025-09-22T16:21:41.292Z</time>
      </trkpt>
      <trkpt lat="45.62136" lon="3.37265">
        <ele>473.29</ele>
        <time>2025-09-22T16:21:43.038Z</time>
      </trkpt>
      <trkpt lat="45.62133" lon="3.37285">
        <ele>469.58</ele>
        <time>2025-09-22T16:21:44.788Z</time>
      </trkpt>
      <trkpt lat="45.62122" lon="3.373">
        <ele>466.21</ele>
        <time>2025-09-22T16:21:46.544Z</time>
      </trkpt>
      <trkpt lat="45.62114" lon="3.37314">
        <ele>463.08</ele>
        <time>2025-09-22T16:21:48.304Z</time>
      </trkpt>
      <trkpt lat="45.62105" lon="3.37333">
        <ele>460.1</ele>
        <time>2025-09-22T16:21:50.069Z</time>
      </trkpt>
      <trkpt lat="45.6211" lon="3.37353">
        <ele>457.33</ele>
        <time>2025-09-22T16:21:51.839Z</time>
      </trkpt>
      <trkpt lat="45.62119" lon="3.37368">
        <ele>454.96</ele>
        <time>2025-09-22T16:21:53.614Z</time>
      </trkpt>
      <trkpt lat="45.62131" lon="3.3741">
        <ele>452.85</ele>
        <time>2025-09-22T16:21:55.399Z</time>
      </trkpt>
      <trkpt lat="45.62143" lon="3.37451">
        <ele>451.23</ele>
        <time>2025-09-22T16:21:57.195Z</time>
      </trkpt>
      <trkpt lat="45.62155" lon="3.37493">
        <ele>449.95</ele>
        <time>2025-09-22T16:21:59.001Z</time>
      </trkpt>
      <trkpt lat="45.62167" lon="3.37534">
        <ele>448.97</ele>
        <time>2025-09-22T16:22:00.818Z</time>
      </trkpt>
      <trkpt lat="45.62179" lon="3.37576">
        <ele>448.24</ele>
        <time>2025-09-22T16:22:02.645Z</time>
      </trkpt>
      <trkpt lat="45.62185" lon="3.37597">
        <ele>447.81</ele>
        <time>2025-09-22T16:22:04.478Z</time>
      </trkpt>
      <trkpt lat="45.62185" lon="3.37596">
        <ele>447.57</ele>
        <time>2025-09-22T16:22:06.311Z</time>
      </trkpt>
      <trkpt lat="45.62197" lon="3.37587">
        <ele>447.58</ele>
        <time>2025-09-22T16:22:08.149Z</time>
      </trkpt>
      <trkpt lat="45.62226" lon="3.37576">
        <ele>447.92</ele>
        <time>2025-09-22T16:22:09.997Z</time>
      </trkpt>
      <trkpt lat="45.62255" lon="3.37566">
        <ele>448.4</ele>
        <time>2025-09-22T16:22:11.855Z</time>
      </trkpt>
      <trkpt lat="45.62273" lon="3.37564">
        <ele>449.08</ele>
        <time>2025-09-22T16:22:13.719Z</time>
      </trkpt>
      <trkpt lat="45.62292" lon="3.37561">
        <ele>449.97</ele>
        <time>2025-09-22T16:22:15.589Z</time>
      </trkpt>
      <trkpt lat="45.623" lon="3.37553">
        <ele>450.97</ele>
        <time>2025-09-22T16:22:17.462Z</time>
      </trkpt>
      <trkpt lat="45.62313" lon="3.37559">
        <ele>452.24</ele>
        <time>2025-09-22T16:22:19.340Z</time>
      </trkpt>
      <trkpt lat="45.62338" lon="3.37553">
        <ele>453.67</ele>
        <time>2025-09-22T16:22:21.226Z</time>
      </trkpt>
      <trkpt lat="45.62362" lon="3.37546">
        <ele>455.25</ele>
        <time>2025-09-22T16:22:23.121Z</time>
      </trkpt>
      <trkpt lat="45.6238" lon="3.37548">
        <ele>456.91</ele>
        <time>2025-09-22T16:22:25.021Z</time>
      </trkpt>
      <trkpt lat="45.62406" lon="3.37564">
        <ele>458.79</ele>
        <time>2025-09-22T16:22:26.931Z</time>
      </trkpt>
      <trkpt lat="45.62432" lon="3.37579">
        <ele>460.74</ele>
        <time>2025-09-22T16:22:28.850Z</time>
      </trkpt>
      <trkpt lat="45.62458" lon="3.37594">
        <ele>462.7</ele>
        <time>2025-09-22T16:22:30.778Z</time>
      </trkpt>
      <trkpt lat="45.62484" lon="3.37609">
        <ele>464.62</ele>
        <time>2025-09-22T16:22:32.716Z</time>
      </trkpt>
      <trkpt lat="45.6251" lon="3.37624">
        <ele>466.51</ele>
        <time>2025-09-22T16:22:34.663Z</time>
      </trkpt>
      <trkpt lat="45.62513" lon="3.37634">
        <ele>468.28</ele>
        <time>2025-09-22T16:22:36.613Z</time>
      </trkpt>
      <trkpt lat="45.62505" lon="3.3767">
        <ele>470.02</ele>
        <time>2025-09-22T16:22:38.572Z</time>
      </trkpt>
      <trkpt lat="45.62497" lon="3.37706">
        <ele>471.67</ele>
        <time>2025-09-22T16:22:40.540Z</time>
      </trkpt>
      <trkpt lat="45.62489" lon="3.37742">
        <ele>473.26</ele>
        <time>2025-09-22T16:22:42.516Z</time>
      </trkpt>
      <trkpt lat="45.62485" lon="3.37752">
        <ele>474.79</ele>
        <time>2025-09-22T16:22:44.495Z</time>
      </trkpt>
      <trkpt lat="45.62499" lon="3.37784">
        <ele>476.22</ele>
        <time>2025-09-22T16:22:46.483Z</time>
      </trkpt>
      <trkpt lat="45.62513" lon="3.37815">
        <ele>477.61</ele>
        <time>2025-09-22T16:22:48.480Z</time>
      </trkpt>
      <trkpt lat="45.62528" lon="3.37847">
        <ele>479.09</ele>
        <time>2025-09-22T16:22:50.485Z</time>
      </trkpt>
      <trkpt lat="45.62536" lon="3.37867">
        <ele>480.68</ele>
        <time>2025-09-22T16:22:52.496Z</time>
      </trkpt>
      <trkpt lat="45.62536" lon="3.37867">
        <ele>482.25</ele>
        <time>2025-09-22T16:22:54.507Z</time>
      </trkpt>
      <trkpt lat="45.62545" lon="3.3789">
        <ele>484</ele>
        <time>2025-09-22T16:22:56.524Z</time>
      </trkpt>
      <trkpt lat="45.62541" lon="3.37903">
        <ele>485.75</ele>
        <time>2025-09-22T16:22:58.544Z</time>
      </trkpt>
      <trkpt lat="45.62519" lon="3.3791">
        <ele>487.49</ele>
        <time>2025-09-22T16:23:00.572Z</time>
      </trkpt>
      <trkpt lat="45.62498" lon="3.37918">
        <ele>489.23</ele>
        <time>2025-09-22T16:23:02.607Z</time>
      </trkpt>
      <trkpt lat="45.62489" lon="3.37933">
        <ele>491.2</ele>
        <time>2025-09-22T16:23:04.647Z</time>
      </trkpt>
      <trkpt lat="45.62493" lon="3.3795">
        <ele>493.34</ele>
        <time>2025-09-22T16:23:06.691Z</time>
      </trkpt>
      <trkpt lat="45.62515" lon="3.37965">
        <ele>495.74</ele>
        <time>2025-09-22T16:23:08.743Z</time>
      </trkpt>
      <trkpt lat="45.62528" lon="3.3798">
        <ele>498.16</ele>
        <time>2025-09-22T16:23:10.800Z</time>
      </trkpt>
      <trkpt lat="45.62534" lon="3.37993">
        <ele>500.51</ele>
        <time>2025-09-22T16:23:12.861Z</time>
      </trkpt>
      <trkpt lat="45.62538" lon="3.38023">
        <ele>502.99</ele>
        <time>2025-09-22T16:23:14.929Z</time>
      </trkpt>
      <trkpt lat="45.62532" lon="3.38044">
        <ele>505.46</ele>
        <time>2025-09-22T16:23:17.003Z</time>
      </trkpt>
      <trkpt lat="45.62517" lon="3.38069">
        <ele>507.83</ele>
        <time>2025-09-22T16:23:19.084Z</time>
      </trkpt>
      <trkpt lat="45.62502" lon="3.38094">
        <ele>510.31</ele>
        <time>2025-09-22T16:23:21.173Z</time>
      </trkpt>
      <trkpt lat="45.62498" lon="3.38102">
        <ele>512.72</ele>
        <time>2025-09-22T16:23:23.264Z</time>
      </trkpt>
      <trkpt lat="45.62498" lon="3.38115">
        <ele>515.19</ele>
        <time>2025-09-22T16:23:25.358Z</time>
      </trkpt>
      <trkpt lat="45.625" lon="3.38126">
        <ele>517.68</ele>
        <time>2025-09-22T16:23:27.455Z</time>
      </trkpt>
      <trkpt lat="45.62508" lon="3.38132">
        <ele>520.28</ele>
        <time>2025-09-22T16:23:29.555Z</time>
      </trkpt>
      <trkpt lat="45.62526" lon="3.38136">
        <ele>522.99</ele>
        <time>2025-09-22T16:23:31.661Z</time>
      </trkpt>
      <trkpt lat="45.62534" lon="3.38145">
        <ele>525.58</ele>
        <time>2025-09-22T16:23:33.771Z</time>
      </trkpt>
      <trkpt lat="45.62543" lon="3.38164">
        <ele>528.14</ele>
        <time>2025-09-22T16:23:35.886Z</time>
      </trkpt>
      <trkpt lat="45.62545" lon="3.38181">
        <ele>530.71</ele>
        <time>2025-09-22T16:23:38.005Z</time>
      </trkpt>
      <trkpt lat="45.62545" lon="3.38205">
        <ele>533.2</ele>
        <time>2025-09-22T16:23:40.130Z</time>
      </trkpt>
      <trkpt lat="45.62545" lon="3.38229">
        <ele>535.63</ele>
        <time>2025-09-22T16:23:42.260Z</time>
      </trkpt>
      <trkpt lat="45.62557" lon="3.38246">
        <ele>538.15</ele>
        <time>2025-09-22T16:23:44.396Z</time>
      </trkpt>
      <trkpt lat="45.62568" lon="3.38263">
        <ele>540.53</ele>
        <time>2025-09-22T16:23:46.537Z</time>
      </trkpt>
      <trkpt lat="45.62579" lon="3.38295">
        <ele>542.78</ele>
        <time>2025-09-22T16:23:48.687Z</time>
      </trkpt>
      <trkpt lat="45.6259" lon="3.38327">
        <ele>545.03</ele>
        <time>2025-09-22T16:23:50.845Z</time>
      </trkpt>
      <trkpt lat="45.62603" lon="3.3836">
        <ele>547.31</ele>
        <time>2025-09-22T16:23:53.012Z</time>
      </trkpt>
      <trkpt lat="45.62616" lon="3.38392">
        <ele>549.58</ele>
        <time>2025-09-22T16:23:55.187Z</time>
      </trkpt>
      <trkpt lat="45.62618" lon="3.38425">
        <ele>551.64</ele>
        <time>2025-09-22T16:23:57.370Z</time>
      </trkpt>
      <trkpt lat="45.6262" lon="3.38458">
        <ele>553.5</ele>
        <time>2025-09-22T16:23:59.561Z</time>
      </trkpt>
      <trkpt lat="45.62635" lon="3.38497">
        <ele>555.01</ele>
        <time>2025-09-22T16:24:01.762Z</time>
      </trkpt>
      <trkpt lat="45.62637" lon="3.3851">
        <ele>556.13</ele>
        <time>2025-09-22T16:24:03.966Z</time>
      </trkpt>
      <trkpt lat="45.62629" lon="3.38518">
        <ele>556.93</ele>
        <time>2025-09-22T16:24:06.174Z</time>
      </trkpt>
      <trkpt lat="45.62633" lon="3.38531">
        <ele>557.56</ele>
        <time>2025-09-22T16:24:08.385Z</time>
      </trkpt>
      <trkpt lat="45.62634" lon="3.38539">
        <ele>557.9</ele>
        <time>2025-09-22T16:24:10.598Z</time>
      </trkpt>
      <trkpt lat="45.62633" lon="3.38531">
        <ele>557.56</ele>
        <time>2025-09-22T16:24:12.813Z</time>
      </trkpt>
      <trkpt lat="45.62629" lon="3.38518">
        <ele>556.93</ele>
        <time>2025-09-22T16:24:15.031Z</time>
      </trkpt>
      <trkpt lat="45.62637" lon="3.3851">
        <ele>556.13</ele>
        <time>2025-09-22T16:24:17.253Z</time>
      </trkpt>
      <trkpt lat="45.62646" lon="3.38501">
        <ele>556.57</ele>
        <time>2025-09-22T16:24:19.478Z</time>
      </trkpt>
      <trkpt lat="45.62669" lon="3.38499">
        <ele>555.57</ele>
        <time>2025-09-22T16:24:21.711Z</time>
      </trkpt>
      <trkpt lat="45.62695" lon="3.38513">
        <ele>554.34</ele>
        <time>2025-09-22T16:24:23.953Z</time>
      </trkpt>
      <trkpt lat="45.62721" lon="3.38526">
        <ele>553.1</ele>
        <time>2025-09-22T16:24:26.204Z</time>
      </trkpt>
      <trkpt lat="45.62747" lon="3.3854">
        <ele>551.67</ele>
        <time>2025-09-22T16:24:28.464Z</time>
      </trkpt>
      <trkpt lat="45.62762" lon="3.38566">
        <ele>550.32</ele>
        <time>2025-09-22T16:24:30.732Z</time>
      </trkpt>
      <trkpt lat="45.62772" lon="3.38606">
        <ele>549.07</ele>
        <time>2025-09-22T16:24:33.010Z</time>
      </trkpt>
      <trkpt lat="45.62792" lon="3.38632">
        <ele>547.61</ele>
        <time>2025-09-22T16:24:35.297Z</time>
      </trkpt>
      <trkpt lat="45.62819" lon="3.38621">
        <ele>545.99</ele>
        <time>2025-09-22T16:24:37.594Z</time>
      </trkpt>
      <trkpt lat="45.62847" lon="3.38611">
        <ele>544.33</ele>
        <time>2025-09-22T16:24:39.900Z</time>
      </trkpt>
      <trkpt lat="45.62865" lon="3.38615">
        <ele>543.02</ele>
        <time>2025-09-22T16:24:42.212Z</time>
      </trkpt>
      <trkpt lat="45.62882" lon="3.38619">
        <ele>541.79</ele>
        <time>2025-09-22T16:24:44.530Z</time>
      </trkpt>
      <trkpt lat="45.6291" lon="3.38621">
        <ele>540.71</ele>
        <time>2025-09-22T16:24:46.857Z</time>
      </trkpt>
      <trkpt lat="45.62932" lon="3.38614">
        <ele>539.75</ele>
        <time>2025-09-22T16:24:49.192Z</time>
      </trkpt>
      <trkpt lat="45.62954" lon="3.38606">
        <ele>539.17</ele>
        <time>2025-09-22T16:24:51.535Z</time>
      </trkpt>
      <trkpt lat="45.62976" lon="3.38598">
        <ele>538.93</ele>
        <time>2025-09-22T16:24:53.885Z</time>
      </trkpt>
      <trkpt lat="45.6298" lon="3.38587">
        <ele>538.66</ele>
        <time>2025-09-22T16:24:56.238Z</time>
      </trkpt>
      <trkpt lat="45.6298" lon="3.38581">
        <ele>538.64</ele>
        <time>2025-09-22T16:24:58.593Z</time>
      </trkpt>
      <trkpt lat="45.6297" lon="3.38553">
        <ele>538.92</ele>
        <time>2025-09-22T16:25:00.955Z</time>
      </trkpt>
      <trkpt lat="45.62945" lon="3.38531">
        <ele>539.28</ele>
        <time>2025-09-22T16:25:03.327Z</time>
      </trkpt>
      <trkpt lat="45.6292" lon="3.3851">
        <ele>539.84</ele>
        <time>2025-09-22T16:25:05.708Z</time>
      </trkpt>
      <trkpt lat="45.62912" lon="3.38467">
        <ele>541.13</ele>
        <time>2025-09-22T16:25:08.100Z</time>
      </trkpt>
      <trkpt lat="45.62908" lon="3.38432">
        <ele>542.45</ele>
        <time>2025-09-22T16:25:10.500Z</time>
      </trkpt>
      <trkpt lat="45.62905" lon="3.38397">
        <ele>543.81</ele>
        <time>2025-09-22T16:25:12.908Z</time>
      </trkpt>
      <trkpt lat="45.62901" lon="3.38362">
        <ele>545.27</ele>
        <time>2025-09-22T16:25:15.325Z</time>
      </trkpt>
      <trkpt lat="45.62929" lon="3.38357">
        <ele>546.86</ele>
        <time>2025-09-22T16:25:17.751Z</time>
      </trkpt>
      <trkpt lat="45.62957" lon="3.38362">
        <ele>548.74</ele>
        <time>2025-09-22T16:25:20.186Z</time>
      </trkpt>
      <trkpt lat="45.62981" lon="3.38346">
        <ele>550.56</ele>
        <time>2025-09-22T16:25:22.630Z</time>
      </trkpt>
      <trkpt lat="45.63005" lon="3.3833">
        <ele>552.46</ele>
        <time>2025-09-22T16:25:25.083Z</time>
      </trkpt>
      <trkpt lat="45.6303" lon="3.38313">
        <ele>554.31</ele>
        <time>2025-09-22T16:25:27.545Z</time>
      </trkpt>
      <trkpt lat="45.63054" lon="3.38297">
        <ele>556.24</ele>
        <time>2025-09-22T16:25:30.016Z</time>
      </trkpt>
      <trkpt lat="45.63078" lon="3.38281">
        <ele>558.23</ele>
        <time>2025-09-22T16:25:32.496Z</time>
      </trkpt>
      <trkpt lat="45.63103" lon="3.38265">
        <ele>560.2</ele>
        <time>2025-09-22T16:25:34.985Z</time>
      </trkpt>
      <trkpt lat="45.63125" lon="3.38243">
        <ele>562.1</ele>
        <time>2025-09-22T16:25:37.483Z</time>
      </trkpt>
      <trkpt lat="45.63131" lon="3.38237">
        <ele>563.89</ele>
        <time>2025-09-22T16:25:39.983Z</time>
      </trkpt>
      <trkpt lat="45.63137" lon="3.38277">
        <ele>565.64</ele>
        <time>2025-09-22T16:25:42.493Z</time>
      </trkpt>
      <trkpt lat="45.63144" lon="3.38317">
        <ele>567.43</ele>
        <time>2025-09-22T16:25:45.013Z</time>
      </trkpt>
      <trkpt lat="45.63151" lon="3.38357">
        <ele>569.15</ele>
        <time>2025-09-22T16:25:47.542Z</time>
      </trkpt>
      <trkpt lat="45.63158" lon="3.38397">
        <ele>570.83</ele>
        <time>2025-09-22T16:25:50.081Z</time>
      </trkpt>
      <trkpt lat="45.63165" lon="3.38437">
        <ele>572.49</ele>
        <time>2025-09-22T16:25:52.629Z</time>
      </trkpt>
      <trkpt lat="45.63176" lon="3.38465">
        <ele>574.18</ele>
        <time>2025-09-22T16:25:55.185Z</time>
      </trkpt>
      <trkpt lat="45.6319" lon="3.38491">
        <ele>575.93</ele>
        <time>2025-09-22T16:25:57.749Z</time>
      </trkpt>
      <trkpt lat="45.63204" lon="3.38516">
        <ele>577.75</ele>
        <time>2025-09-22T16:26:00.320Z</time>
      </trkpt>
      <trkpt lat="45.63214" lon="3.3854">
        <ele>579.55</ele>
        <time>2025-09-22T16:26:02.898Z</time>
      </trkpt>
      <trkpt lat="45.63224" lon="3.38579">
        <ele>581.35</ele>
        <time>2025-09-22T16:26:05.485Z</time>
      </trkpt>
      <trkpt lat="45.63233" lon="3.38617">
        <ele>583.17</ele>
        <time>2025-09-22T16:26:08.082Z</time>
      </trkpt>
      <trkpt lat="45.63242" lon="3.38656">
        <ele>585.02</ele>
        <time>2025-09-22T16:26:10.688Z</time>
      </trkpt>
      <trkpt lat="45.63253" lon="3.38671">
        <ele>586.83</ele>
        <time>2025-09-22T16:26:13.299Z</time>
      </trkpt>
      <trkpt lat="45.63277" lon="3.38688">
        <ele>588.68</ele>
        <time>2025-09-22T16:26:15.919Z</time>
      </trkpt>
      <trkpt lat="45.633" lon="3.38712">
        <ele>590.42</ele>
        <time>2025-09-22T16:26:18.549Z</time>
      </trkpt>
      <trkpt lat="45.63322" lon="3.38731">
        <ele>592.02</ele>
        <time>2025-09-22T16:26:21.187Z</time>
      </trkpt>
      <trkpt lat="45.63343" lon="3.3875">
        <ele>593.55</ele>
        <time>2025-09-22T16:26:23.834Z</time>
      </trkpt>
      <trkpt lat="45.63365" lon="3.38769">
        <ele>595.11</ele>
        <time>2025-09-22T16:26:26.489Z</time>
      </trkpt>
      <trkpt lat="45.63387" lon="3.38785">
        <ele>596.64</ele>
        <time>2025-09-22T16:26:29.153Z</time>
      </trkpt>
      <trkpt lat="45.6341" lon="3.38801">
        <ele>598.05</ele>
        <time>2025-09-22T16:26:31.825Z</time>
      </trkpt>
      <trkpt lat="45.63432" lon="3.38816">
        <ele>599.41</ele>
        <time>2025-09-22T16:26:34.505Z</time>
      </trkpt>
      <trkpt lat="45.63455" lon="3.38832">
        <ele>600.77</ele>
        <time>2025-09-22T16:26:37.194Z</time>
      </trkpt>
      <trkpt lat="45.63476" lon="3.38849">
        <ele>602.14</ele>
        <time>2025-09-22T16:26:39.891Z</time>
      </trkpt>
      <trkpt lat="45.63498" lon="3.38866">
        <ele>603.56</ele>
        <time>2025-09-22T16:26:42.596Z</time>
      </trkpt>
      <trkpt lat="45.63519" lon="3.38883">
        <ele>605</ele>
        <time>2025-09-22T16:26:45.309Z</time>
      </trkpt>
      <trkpt lat="45.63519" lon="3.38883">
        <ele>606.33</ele>
        <time>2025-09-22T16:26:48.022Z</time>
      </trkpt>
      <trkpt lat="45.63535" lon="3.38895">
        <ele>607.7</ele>
        <time>2025-09-22T16:26:50.741Z</time>
      </trkpt>
      <trkpt lat="45.63551" lon="3.38907">
        <ele>609.05</ele>
        <time>2025-09-22T16:26:53.466Z</time>
      </trkpt>
      <trkpt lat="45.63571" lon="3.38928">
        <ele>610.37</ele>
        <time>2025-09-22T16:26:56.200Z</time>
      </trkpt>
      <trkpt lat="45.63591" lon="3.38949">
        <ele>611.7</ele>
        <time>2025-09-22T16:26:58.942Z</time>
      </trkpt>
      <trkpt lat="45.63611" lon="3.3897">
        <ele>613.09</ele>
        <time>2025-09-22T16:27:01.692Z</time>
      </trkpt>
      <trkpt lat="45.63631" lon="3.3899">
        <ele>614.51</ele>
        <time>2025-09-22T16:27:04.450Z</time>
      </trkpt>
      <trkpt lat="45.6365" lon="3.39001">
        <ele>615.86</ele>
        <time>2025-09-22T16:27:07.215Z</time>
      </trkpt>
      <trkpt lat="45.63669" lon="3.39012">
        <ele>617.14</ele>
        <time>2025-09-22T16:27:09.987Z</time>
      </trkpt>
      <trkpt lat="45.63693" lon="3.39038">
        <ele>618.45</ele>
        <time>2025-09-22T16:27:12.769Z</time>
      </trkpt>
      <trkpt lat="45.63716" lon="3.39063">
        <ele>619.64</ele>
        <time>2025-09-22T16:27:15.561Z</time>
      </trkpt>
      <trkpt lat="45.63739" lon="3.39082">
        <ele>620.69</ele>
        <time>2025-09-22T16:27:18.361Z</time>
      </trkpt>
      <trkpt lat="45.63761" lon="3.391">
        <ele>621.66</ele>
        <time>2025-09-22T16:27:21.170Z</time>
      </trkpt>
      <trkpt lat="45.63788" lon="3.39115">
        <ele>622.56</ele>
        <time>2025-09-22T16:27:23.989Z</time>
      </trkpt>
      <trkpt lat="45.63815" lon="3.3913">
        <ele>623.3</ele>
        <time>2025-09-22T16:27:26.817Z</time>
      </trkpt>
      <trkpt lat="45.63832" lon="3.39143">
        <ele>623.82</ele>
        <time>2025-09-22T16:27:29.652Z</time>
      </trkpt>
      <trkpt lat="45.63846" lon="3.39163">
        <ele>624.2</ele>
        <time>2025-09-22T16:27:32.493Z</time>
      </trkpt>
      <trkpt lat="45.6386" lon="3.39184">
        <ele>624.41</ele>
        <time>2025-09-22T16:27:35.341Z</time>
      </trkpt>
      <trkpt lat="45.63874" lon="3.39199">
        <ele>624.4</ele>
        <time>2025-09-22T16:27:38.195Z</time>
      </trkpt>
      <trkpt lat="45.63888" lon="3.39214">
        <ele>624.18</ele>
        <time>2025-09-22T16:27:41.055Z</time>
      </trkpt>
      <trkpt lat="45.63904" lon="3.39221">
        <ele>623.67</ele>
        <time>2025-09-22T16:27:43.920Z</time>
      </trkpt>
      <trkpt lat="45.6392" lon="3.39229">
        <ele>622.93</ele>
        <time>2025-09-22T16:27:46.791Z</time>
      </trkpt>
      <trkpt lat="45.63936" lon="3.39245">
        <ele>622.02</ele>
        <time>2025-09-22T16:27:49.669Z</time>
      </trkpt>
      <trkpt lat="45.63952" lon="3.39261">
        <ele>620.94</ele>
        <time>2025-09-22T16:27:52.553Z</time>
      </trkpt>
      <trkpt lat="45.63971" lon="3.39254">
        <ele>619.46</ele>
        <time>2025-09-22T16:27:55.443Z</time>
      </trkpt>
      <trkpt lat="45.63989" lon="3.39247">
        <ele>617.77</ele>
        <time>2025-09-22T16:27:58.340Z</time>
      </trkpt>
      <trkpt lat="45.63993" lon="3.39246">
        <ele>615.98</ele>
        <time>2025-09-22T16:28:01.238Z</time>
      </trkpt>
      <trkpt lat="45.64012" lon="3.39217">
        <ele>613.71</ele>
        <time>2025-09-22T16:28:04.145Z</time>
      </trkpt>
      <trkpt lat="45.64031" lon="3.39189">
        <ele>611.38</ele>
        <time>2025-09-22T16:28:07.062Z</time>
      </trkpt>
      <trkpt lat="45.6405" lon="3.3916">
        <ele>608.76</ele>
        <time>2025-09-22T16:28:09.988Z</time>
      </trkpt>
      <trkpt lat="45.64068" lon="3.39132">
        <ele>606.04</ele>
        <time>2025-09-22T16:28:12.923Z</time>
      </trkpt>
      <trkpt lat="45.64088" lon="3.3913">
        <ele>603.52</ele>
        <time>2025-09-22T16:28:15.864Z</time>
      </trkpt>
      <trkpt lat="45.64107" lon="3.39128">
        <ele>600.84</ele>
        <time>2025-09-22T16:28:18.812Z</time>
      </trkpt>
      <trkpt lat="45.64121" lon="3.39088">
        <ele>597.92</ele>
        <time>2025-09-22T16:28:21.770Z</time>
      </trkpt>
      <trkpt lat="45.64136" lon="3.39049">
        <ele>595.28</ele>
        <time>2025-09-22T16:28:24.738Z</time>
      </trkpt>
      <trkpt lat="45.6415" lon="3.3901">
        <ele>592.59</ele>
        <time>2025-09-22T16:28:27.717Z</time>
      </trkpt>
      <trkpt lat="45.64148" lon="3.38977">
        <ele>589.66</ele>
        <time>2025-09-22T16:28:30.703Z</time>
      </trkpt>
      <trkpt lat="45.64146" lon="3.38945">
        <ele>586.75</ele>
        <time>2025-09-22T16:28:33.697Z</time>
      </trkpt>
      <trkpt lat="45.64143" lon="3.38913">
        <ele>583.71</ele>
        <time>2025-09-22T16:28:36.698Z</time>
      </trkpt>
      <trkpt lat="45.64154" lon="3.38874">
        <ele>580.77</ele>
        <time>2025-09-22T16:28:39.709Z</time>
      </trkpt>
      <trkpt lat="45.64165" lon="3.38834">
        <ele>577.76</ele>
        <time>2025-09-22T16:28:42.730Z</time>
      </trkpt>
      <trkpt lat="45.64176" lon="3.38795">
        <ele>574.89</ele>
        <time>2025-09-22T16:28:45.761Z</time>
      </trkpt>
      <trkpt lat="45.64191" lon="3.38778">
        <ele>572.18</ele>
        <time>2025-09-22T16:28:48.798Z</time>
      </trkpt>
      <trkpt lat="45.64216" lon="3.38764">
        <ele>569.52</ele>
        <time>2025-09-22T16:28:51.845Z</time>
      </trkpt>
      <trkpt lat="45.64242" lon="3.3875">
        <ele>567.1</ele>
        <time>2025-09-22T16:28:54.901Z</time>
      </trkpt>
      <trkpt lat="45.64261" lon="3.38731">
        <ele>564.8</ele>
        <time>2025-09-22T16:28:57.965Z</time>
      </trkpt>
      <trkpt lat="45.6427" lon="3.38706">
        <ele>562.71</ele>
        <time>2025-09-22T16:29:01.035Z</time>
      </trkpt>
      <trkpt lat="45.64279" lon="3.38681">
        <ele>560.85</ele>
        <time>2025-09-22T16:29:04.112Z</time>
      </trkpt>
      <trkpt lat="45.64296" lon="3.38669">
        <ele>559.27</ele>
        <time>2025-09-22T16:29:07.195Z</time>
      </trkpt>
      <trkpt lat="45.64313" lon="3.38656">
        <ele>557.88</ele>
        <time>2025-09-22T16:29:10.285Z</time>
      </trkpt>
      <trkpt lat="45.6433" lon="3.38656">
        <ele>556.81</ele>
        <time>2025-09-22T16:29:13.380Z</time>
      </trkpt>
      <trkpt lat="45.6433" lon="3.38651">
        <ele>555.9</ele>
        <time>2025-09-22T16:29:16.476Z</time>
      </trkpt>
      <trkpt lat="45.6433" lon="3.38651">
        <ele>555.23</ele>
        <time>2025-09-22T16:29:19.572Z</time>
      </trkpt>
      <trkpt lat="45.6433" lon="3.38641">
        <ele>554.74</ele>
        <time>2025-09-22T16:29:22.671Z</time>
      </trkpt>
      <trkpt lat="45.64324" lon="3.38628">
        <ele>554.45</ele>
        <time>2025-09-22T16:29:25.773Z</time>
      </trkpt>
      <trkpt lat="45.64317" lon="3.38591">
        <ele>554.47</ele>
        <time>2025-09-22T16:29:28.884Z</time>
      </trkpt>
      <trkpt lat="45.6433" lon="3.38574">
        <ele>554.82</ele>
        <time>2025-09-22T16:29:32.001Z</time>
      </trkpt>
      <trkpt lat="45.64343" lon="3.38557">
        <ele>555.4</ele>
        <time>2025-09-22T16:29:35.124Z</time>
      </trkpt>
      <trkpt lat="45.6433" lon="3.38557">
        <ele>555.95</ele>
        <time>2025-09-22T16:29:38.251Z</time>
      </trkpt>
      <trkpt lat="45.64334" lon="3.38562">
        <ele>556.72</ele>
        <time>2025-09-22T16:29:41.380Z</time>
      </trkpt>
      <trkpt lat="45.64334" lon="3.38562">
        <ele>557.7</ele>
        <time>2025-09-22T16:29:44.509Z</time>
      </trkpt>
      <trkpt lat="45.6433" lon="3.38557">
        <ele>558.87</ele>
        <time>2025-09-22T16:29:47.640Z</time>
      </trkpt>
      <trkpt lat="45.6433" lon="3.38557">
        <ele>555.95</ele>
        <time>2025-09-22T16:29:50.771Z</time>
      </trkpt>
      <trkpt lat="45.64324" lon="3.38555">
        <ele>561.62</ele>
        <time>2025-09-22T16:29:53.904Z</time>
      </trkpt>
      <trkpt lat="45.64306" lon="3.38538">
        <ele>563.38</ele>
        <time>2025-09-22T16:29:57.044Z</time>
      </trkpt>
      <trkpt lat="45.64296" lon="3.38531">
        <ele>565.24</ele>
        <time>2025-09-22T16:30:00.188Z</time>
      </trkpt>
      <trkpt lat="45.64276" lon="3.38543">
        <ele>566.96</ele>
        <time>2025-09-22T16:30:03.339Z</time>
      </trkpt>
      <trkpt lat="45.64257" lon="3.38555">
        <ele>568.85</ele>
        <time>2025-09-22T16:30:06.497Z</time>
      </trkpt>
      <trkpt lat="45.64251" lon="3.38557">
        <ele>570.82</ele>
        <time>2025-09-22T16:30:09.657Z</time>
      </trkpt>
      <trkpt lat="45.64244" lon="3.38553">
        <ele>572.95</ele>
        <time>2025-09-22T16:30:12.819Z</time>
      </trkpt>
      <trkpt lat="45.64224" lon="3.38526">
        <ele>575.37</ele>
        <time>2025-09-22T16:30:15.991Z</time>
      </trkpt>
      <trkpt lat="45.64204" lon="3.38499">
        <ele>577.59</ele>
        <time>2025-09-22T16:30:19.172Z</time>
      </trkpt>
      <trkpt lat="45.64182" lon="3.38475">
        <ele>579.78</ele>
        <time>2025-09-22T16:30:22.362Z</time>
      </trkpt>
      <trkpt lat="45.64165" lon="3.38463">
        <ele>581.89</ele>
        <time>2025-09-22T16:30:25.558Z</time>
      </trkpt>
      <trkpt lat="45.64148" lon="3.3845">
        <ele>583.95</ele>
        <time>2025-09-22T16:30:28.761Z</time>
      </trkpt>
      <trkpt lat="45.64141" lon="3.38439">
        <ele>585.92</ele>
        <time>2025-09-22T16:30:31.967Z</time>
      </trkpt>
      <trkpt lat="45.64146" lon="3.38428">
        <ele>587.76</ele>
        <time>2025-09-22T16:30:35.176Z</time>
      </trkpt>
      <trkpt lat="45.64171" lon="3.38424">
        <ele>589.5</ele>
        <time>2025-09-22T16:30:38.394Z</time>
      </trkpt>
      <trkpt lat="45.64197" lon="3.3842">
        <ele>591.08</ele>
        <time>2025-09-22T16:30:41.620Z</time>
      </trkpt>
      <trkpt lat="45.6421" lon="3.38411">
        <ele>592.53</ele>
        <time>2025-09-22T16:30:44.851Z</time>
      </trkpt>
      <trkpt lat="45.64222" lon="3.3839">
        <ele>593.95</ele>
        <time>2025-09-22T16:30:48.089Z</time>
      </trkpt>
      <trkpt lat="45.64234" lon="3.38368">
        <ele>595.21</ele>
        <time>2025-09-22T16:30:51.333Z</time>
      </trkpt>
      <trkpt lat="45.64249" lon="3.38353">
        <ele>596.11</ele>
        <time>2025-09-22T16:30:54.583Z</time>
      </trkpt>
      <trkpt lat="45.64223" lon="3.38345">
        <ele>596.68</ele>
        <time>2025-09-22T16:30:57.842Z</time>
      </trkpt>
      <trkpt lat="45.64206" lon="3.38333">
        <ele>596.97</ele>
        <time>2025-09-22T16:31:01.107Z</time>
      </trkpt>
      <trkpt lat="45.64188" lon="3.38321">
        <ele>596.96</ele>
        <time>2025-09-22T16:31:04.379Z</time>
      </trkpt>
      <trkpt lat="45.64173" lon="3.38302">
        <ele>596.77</ele>
        <time>2025-09-22T16:31:07.657Z</time>
      </trkpt>
      <trkpt lat="45.64157" lon="3.38273">
        <ele>596.35</ele>
        <time>2025-09-22T16:31:10.944Z</time>
      </trkpt>
      <trkpt lat="45.64141" lon="3.38244">
        <ele>595.72</ele>
        <time>2025-09-22T16:31:14.240Z</time>
      </trkpt>
      <trkpt lat="45.64128" lon="3.38215">
        <ele>594.96</ele>
        <time>2025-09-22T16:31:17.544Z</time>
      </trkpt>
      <trkpt lat="45.64116" lon="3.38186">
        <ele>594.11</ele>
        <time>2025-09-22T16:31:20.856Z</time>
      </trkpt>
      <trkpt lat="45.64109" lon="3.38162">
        <ele>593.07</ele>
        <time>2025-09-22T16:31:24.174Z</time>
      </trkpt>
      <trkpt lat="45.64103" lon="3.38139">
        <ele>591.93</ele>
        <time>2025-09-22T16:31:27.497Z</time>
      </trkpt>
      <trkpt lat="45.64083" lon="3.38117">
        <ele>590.6</ele>
        <time>2025-09-22T16:31:30.829Z</time>
      </trkpt>
      <trkpt lat="45.64081" lon="3.38106">
        <ele>589.36</ele>
        <time>2025-09-22T16:31:34.163Z</time>
      </trkpt>
      <trkpt lat="45.64083" lon="3.38083">
        <ele>588.06</ele>
        <time>2025-09-22T16:31:37.503Z</time>
      </trkpt>
      <trkpt lat="45.64105" lon="3.38055">
        <ele>586.7</ele>
        <time>2025-09-22T16:31:40.852Z</time>
      </trkpt>
      <trkpt lat="45.64113" lon="3.38053">
        <ele>585.49</ele>
        <time>2025-09-22T16:31:44.204Z</time>
      </trkpt>
      <trkpt lat="45.64133" lon="3.38057">
        <ele>584.27</ele>
        <time>2025-09-22T16:31:47.563Z</time>
      </trkpt>
      <trkpt lat="45.64139" lon="3.38029">
        <ele>582.8</ele>
        <time>2025-09-22T16:31:50.929Z</time>
      </trkpt>
      <trkpt lat="45.64148" lon="3.38003">
        <ele>581.5</ele>
        <time>2025-09-22T16:31:54.301Z</time>
      </trkpt>
      <trkpt lat="45.64149" lon="3.37989">
        <ele>580.5</ele>
        <time>2025-09-22T16:31:57.677Z</time>
      </trkpt>
      <trkpt lat="45.6415" lon="3.37984">
        <ele>579.62</ele>
        <time>2025-09-22T16:32:01.054Z</time>
      </trkpt>
      <trkpt lat="45.64156" lon="3.37967">
        <ele>578.91</ele>
        <time>2025-09-22T16:32:04.436Z</time>
      </trkpt>
      <trkpt lat="45.64171" lon="3.37954">
        <ele>578.39</ele>
        <time>2025-09-22T16:32:07.823Z</time>
      </trkpt>
      <trkpt lat="45.64176" lon="3.37943">
        <ele>577.88</ele>
        <time>2025-09-22T16:32:11.213Z</time>
      </trkpt>
      <trkpt lat="45.64177" lon="3.3791">
        <ele>577.61</ele>
        <time>2025-09-22T16:32:14.611Z</time>
      </trkpt>
      <trkpt lat="45.64178" lon="3.37877">
        <ele>577.33</ele>
        <time>2025-09-22T16:32:18.017Z</time>
      </trkpt>
      <trkpt lat="45.6418" lon="3.37873">
        <ele>577.06</ele>
        <time>2025-09-22T16:32:21.424Z</time>
      </trkpt>
      <trkpt lat="45.64186" lon="3.37873">
        <ele>576.9</ele>
        <time>2025-09-22T16:32:24.833Z</time>
      </trkpt>
      <trkpt lat="45.64181" lon="3.37829">
        <ele>576.77</ele>
        <time>2025-09-22T16:32:28.253Z</time>
      </trkpt>
      <trkpt lat="45.64175" lon="3.37785">
        <ele>576.47</ele>
        <time>2025-09-22T16:32:31.683Z</time>
      </trkpt>
      <trkpt lat="45.64169" lon="3.37742">
        <ele>576.11</ele>
        <time>2025-09-22T16:32:35.123Z</time>
      </trkpt>
      <trkpt lat="45.64172" lon="3.37707">
        <ele>575.98</ele>
        <time>2025-09-22T16:32:38.572Z</time>
      </trkpt>
      <trkpt lat="45.64176" lon="3.37673">
        <ele>575.99</ele>
        <time>2025-09-22T16:32:42.029Z</time>
      </trkpt>
      <trkpt lat="45.64196" lon="3.37649">
        <ele>576.2</ele>
        <time>2025-09-22T16:32:45.494Z</time>
      </trkpt>
      <trkpt lat="45.64216" lon="3.37626">
        <ele>576.35</ele>
        <time>2025-09-22T16:32:48.968Z</time>
      </trkpt>
      <trkpt lat="45.64237" lon="3.37605">
        <ele>576.49</ele>
        <time>2025-09-22T16:32:52.450Z</time>
      </trkpt>
      <trkpt lat="45.64257" lon="3.37585">
        <ele>576.73</ele>
        <time>2025-09-22T16:32:55.941Z</time>
      </trkpt>
      <trkpt lat="45.6427" lon="3.37585">
        <ele>577.16</ele>
        <time>2025-09-22T16:32:59.436Z</time>
      </trkpt>
      <trkpt lat="45.64274" lon="3.37572">
        <ele>577.55</ele>
        <time>2025-09-22T16:33:02.934Z</time>
      </trkpt>
      <trkpt lat="45.6427" lon="3.37544">
        <ele>578.06</ele>
        <time>2025-09-22T16:33:06.439Z</time>
      </trkpt>
      <trkpt lat="45.64254" lon="3.37538">
        <ele>578.44</ele>
        <time>2025-09-22T16:33:09.950Z</time>
      </trkpt>
      <trkpt lat="45.64238" lon="3.37531">
        <ele>578.78</ele>
        <time>2025-09-22T16:33:13.466Z</time>
      </trkpt>
      <trkpt lat="45.64215" lon="3.37508">
        <ele>579.25</ele>
        <time>2025-09-22T16:33:16.992Z</time>
      </trkpt>
      <trkpt lat="45.64193" lon="3.37484">
        <ele>579.74</ele>
        <time>2025-09-22T16:33:20.527Z</time>
      </trkpt>
      <trkpt lat="45.64182" lon="3.37445">
        <ele>580.42</ele>
        <time>2025-09-22T16:33:24.072Z</time>
      </trkpt>
      <trkpt lat="45.64182" lon="3.3742">
        <ele>581.03</ele>
        <time>2025-09-22T16:33:27.623Z</time>
      </trkpt>
      <trkpt lat="45.64191" lon="3.37397">
        <ele>581.41</ele>
        <time>2025-09-22T16:33:31.180Z</time>
      </trkpt>
      <trkpt lat="45.64199" lon="3.37375">
        <ele>581.56</ele>
        <time>2025-09-22T16:33:34.743Z</time>
      </trkpt>
      <trkpt lat="45.64175" lon="3.37373">
        <ele>581.44</ele>
        <time>2025-09-22T16:33:38.314Z</time>
      </trkpt>
      <trkpt lat="45.6415" lon="3.3737">
        <ele>581.14</ele>
        <time>2025-09-22T16:33:41.893Z</time>
      </trkpt>
      <trkpt lat="45.64137" lon="3.37364">
        <ele>580.63</ele>
        <time>2025-09-22T16:33:45.477Z</time>
      </trkpt>
      <trkpt lat="45.64113" lon="3.37338">
        <ele>579.87</ele>
        <time>2025-09-22T16:33:49.071Z</time>
      </trkpt>
      <trkpt lat="45.64105" lon="3.37321">
        <ele>578.97</ele>
        <time>2025-09-22T16:33:52.669Z</time>
      </trkpt>
      <trkpt lat="45.64091" lon="3.37305">
        <ele>577.77</ele>
        <time>2025-09-22T16:33:56.273Z</time>
      </trkpt>
      <trkpt lat="45.64077" lon="3.37289">
        <ele>576.37</ele>
        <time>2025-09-22T16:33:59.883Z</time>
      </trkpt>
      <trkpt lat="45.64071" lon="3.37281">
        <ele>574.85</ele>
        <time>2025-09-22T16:34:03.496Z</time>
      </trkpt>
      <trkpt lat="45.64068" lon="3.37276">
        <ele>573.15</ele>
        <time>2025-09-22T16:34:07.111Z</time>
      </trkpt>
      <trkpt lat="45.64047" lon="3.37255">
        <ele>571.01</ele>
        <time>2025-09-22T16:34:10.734Z</time>
      </trkpt>
      <trkpt lat="45.64033" lon="3.37236">
        <ele>568.72</ele>
        <time>2025-09-22T16:34:14.364Z</time>
      </trkpt>
      <trkpt lat="45.64019" lon="3.37218">
        <ele>566.29</ele>
        <time>2025-09-22T16:34:18.000Z</time>
      </trkpt>
      <trkpt lat="45.64008" lon="3.37214">
        <ele>563.77</ele>
        <time>2025-09-22T16:34:21.640Z</time>
      </trkpt>
      <trkpt lat="45.64" lon="3.37214">
        <ele>561.14</ele>
        <time>2025-09-22T16:34:25.282Z</time>
      </trkpt>
      <trkpt lat="45.63991" lon="3.37199">
        <ele>558.4</ele>
        <time>2025-09-22T16:34:28.929Z</time>
      </trkpt>
      <trkpt lat="45.63982" lon="3.37177">
        <ele>555.5</ele>
        <time>2025-09-22T16:34:32.582Z</time>
      </trkpt>
      <trkpt lat="45.63993" lon="3.37139">
        <ele>552.41</ele>
        <time>2025-09-22T16:34:36.245Z</time>
      </trkpt>
      <trkpt lat="45.63987" lon="3.37128">
        <ele>549.26</ele>
        <time>2025-09-22T16:34:39.911Z</time>
      </trkpt>
      <trkpt lat="45.63971" lon="3.37125">
        <ele>546.03</ele>
        <time>2025-09-22T16:34:43.582Z</time>
      </trkpt>
      <trkpt lat="45.63955" lon="3.37121">
        <ele>542.67</ele>
        <time>2025-09-22T16:34:47.259Z</time>
      </trkpt>
      <trkpt lat="45.63937" lon="3.37132">
        <ele>539.33</ele>
        <time>2025-09-22T16:34:50.942Z</time>
      </trkpt>
      <trkpt lat="45.63919" lon="3.37143">
        <ele>535.91</ele>
        <time>2025-09-22T16:34:54.631Z</time>
      </trkpt>
      <trkpt lat="45.63916" lon="3.37145">
        <ele>532.65</ele>
        <time>2025-09-22T16:34:58.322Z</time>
      </trkpt>
      <trkpt lat="45.63898" lon="3.37163">
        <ele>529.21</ele>
        <time>2025-09-22T16:35:02.020Z</time>
      </trkpt>
      <trkpt lat="45.63879" lon="3.37182">
        <ele>525.67</ele>
        <time>2025-09-22T16:35:05.726Z</time>
      </trkpt>
      <trkpt lat="45.63849" lon="3.37177">
        <ele>522.12</ele>
        <time>2025-09-22T16:35:09.442Z</time>
      </trkpt>
      <trkpt lat="45.63839" lon="3.37169">
        <ele>518.89</ele>
        <time>2025-09-22T16:35:13.162Z</time>
      </trkpt>
      <trkpt lat="45.63838" lon="3.37146">
        <ele>515.84</ele>
        <time>2025-09-22T16:35:16.887Z</time>
      </trkpt>
      <trkpt lat="45.63837" lon="3.37124">
        <ele>512.87</ele>
        <time>2025-09-22T16:35:20.617Z</time>
      </trkpt>
      <trkpt lat="45.63843" lon="3.37111">
        <ele>510.16</ele>
        <time>2025-09-22T16:35:24.351Z</time>
      </trkpt>
      <trkpt lat="45.63845" lon="3.37096">
        <ele>507.44</ele>
        <time>2025-09-22T16:35:28.089Z</time>
      </trkpt>
      <trkpt lat="45.63834" lon="3.37089">
        <ele>504.71</ele>
        <time>2025-09-22T16:35:31.830Z</time>
      </trkpt>
      <trkpt lat="45.63808" lon="3.37093">
        <ele>501.99</ele>
        <time>2025-09-22T16:35:35.580Z</time>
      </trkpt>
      <trkpt lat="45.63781" lon="3.37096">
        <ele>499.48</ele>
        <time>2025-09-22T16:35:39.339Z</time>
      </trkpt>
      <trkpt lat="45.63774" lon="3.37087">
        <ele>497.39</ele>
        <time>2025-09-22T16:35:43.101Z</time>
      </trkpt>
      <trkpt lat="45.63776" lon="3.3707">
        <ele>495.51</ele>
        <time>2025-09-22T16:35:46.867Z</time>
      </trkpt>
      <trkpt lat="45.63793" lon="3.37051">
        <ele>493.91</ele>
        <time>2025-09-22T16:35:50.640Z</time>
      </trkpt>
      <trkpt lat="45.63809" lon="3.37031">
        <ele>492.5</ele>
        <time>2025-09-22T16:35:54.420Z</time>
      </trkpt>
      <trkpt lat="45.63815" lon="3.37012">
        <ele>491.22</ele>
        <time>2025-09-22T16:35:58.205Z</time>
      </trkpt>
      <trkpt lat="45.63811" lon="3.36993">
        <ele>490.01</ele>
        <time>2025-09-22T16:36:01.995Z</time>
      </trkpt>
      <trkpt lat="45.63811" lon="3.36993">
        <ele>489.25</ele>
        <time>2025-09-22T16:36:05.785Z</time>
      </trkpt>
      <trkpt lat="45.63821" lon="3.36985">
        <ele>488.77</ele>
        <time>2025-09-22T16:36:09.579Z</time>
      </trkpt>
      <trkpt lat="45.63822" lon="3.36971">
        <ele>488.34</ele>
        <time>2025-09-22T16:36:13.376Z</time>
      </trkpt>
      <trkpt lat="45.63837" lon="3.36947">
        <ele>488.23</ele>
        <time>2025-09-22T16:36:17.181Z</time>
      </trkpt>
      <trkpt lat="45.63855" lon="3.36921">
        <ele>488.36</ele>
        <time>2025-09-22T16:36:20.994Z</time>
      </trkpt>
      <trkpt lat="45.63874" lon="3.36886">
        <ele>488.68</ele>
        <time>2025-09-22T16:36:24.818Z</time>
      </trkpt>
      <trkpt lat="45.63878" lon="3.36878">
        <ele>489.22</ele>
        <time>2025-09-22T16:36:28.644Z</time>
      </trkpt>
      <trkpt lat="45.63904" lon="3.36853">
        <ele>489.91</ele>
        <time>2025-09-22T16:36:32.480Z</time>
      </trkpt>
      <trkpt lat="45.63916" lon="3.36842">
        <ele>490.9</ele>
        <time>2025-09-22T16:36:36.321Z</time>
      </trkpt>
      <trkpt lat="45.63901" lon="3.36826">
        <ele>492.15</ele>
        <time>2025-09-22T16:36:40.168Z</time>
      </trkpt>
      <trkpt lat="45.63883" lon="3.36818">
        <ele>493.6</ele>
        <time>2025-09-22T16:36:44.022Z</time>
      </trkpt>
      <trkpt lat="45.63868" lon="3.36814">
        <ele>495.18</ele>
        <time>2025-09-22T16:36:47.881Z</time>
      </trkpt>
      <trkpt lat="45.6384" lon="3.3681">
        <ele>497.05</ele>
        <time>2025-09-22T16:36:51.749Z</time>
      </trkpt>
      <trkpt lat="45.63811" lon="3.36791">
        <ele>499.04</ele>
        <time>2025-09-22T16:36:55.628Z</time>
      </trkpt>
      <trkpt lat="45.63811" lon="3.36791">
        <ele>500.84</ele>
        <time>2025-09-22T16:36:59.507Z</time>
      </trkpt>
      <trkpt lat="45.6379" lon="3.36786">
        <ele>502.82</ele>
        <time>2025-09-22T16:37:03.393Z</time>
      </trkpt>
      <trkpt lat="45.63781" lon="3.36751">
        <ele>504.97</ele>
        <time>2025-09-22T16:37:07.287Z</time>
      </trkpt>
      <trkpt lat="45.63769" lon="3.36734">
        <ele>507</ele>
        <time>2025-09-22T16:37:11.187Z</time>
      </trkpt>
      <trkpt lat="45.63742" lon="3.36711">
        <ele>509</ele>
        <time>2025-09-22T16:37:15.097Z</time>
      </trkpt>
      <trkpt lat="45.63719" lon="3.36692">
        <ele>510.99</ele>
        <time>2025-09-22T16:37:19.016Z</time>
      </trkpt>
      <trkpt lat="45.63706" lon="3.36674">
        <ele>513.09</ele>
        <time>2025-09-22T16:37:22.941Z</time>
      </trkpt>
      <trkpt lat="45.63678" lon="3.36668">
        <ele>514.96</ele>
        <time>2025-09-22T16:37:26.876Z</time>
      </trkpt>
      <trkpt lat="45.63658" lon="3.36675">
        <ele>516.76</ele>
        <time>2025-09-22T16:37:30.818Z</time>
      </trkpt>
      <trkpt lat="45.63628" lon="3.36662">
        <ele>518.72</ele>
        <time>2025-09-22T16:37:34.770Z</time>
      </trkpt>
      <trkpt lat="45.63616" lon="3.36656">
        <ele>520.59</ele>
        <time>2025-09-22T16:37:38.727Z</time>
      </trkpt>
      <trkpt lat="45.63639" lon="3.36637">
        <ele>522.74</ele>
        <time>2025-09-22T16:37:42.692Z</time>
      </trkpt>
      <trkpt lat="45.63666" lon="3.3662">
        <ele>524.66</ele>
        <time>2025-09-22T16:37:46.667Z</time>
      </trkpt>
      <trkpt lat="45.63696" lon="3.36609">
        <ele>526.46</ele>
        <time>2025-09-22T16:37:50.653Z</time>
      </trkpt>
      <trkpt lat="45.63715" lon="3.36615">
        <ele>528.01</ele>
        <time>2025-09-22T16:37:54.645Z</time>
      </trkpt>
      <trkpt lat="45.63747" lon="3.36617">
        <ele>529.58</ele>
        <time>2025-09-22T16:37:58.648Z</time>
      </trkpt>
      <trkpt lat="45.63747" lon="3.36617">
        <ele>530.97</ele>
        <time>2025-09-22T16:38:02.651Z</time>
      </trkpt>
      <trkpt lat="45.63748" lon="3.36619">
        <ele>532.25</ele>
        <time>2025-09-22T16:38:06.654Z</time>
      </trkpt>
      <trkpt lat="45.63755" lon="3.36615">
        <ele>533.5</ele>
        <time>2025-09-22T16:38:10.660Z</time>
      </trkpt>
      <trkpt lat="45.63774" lon="3.36581">
        <ele>534.91</ele>
        <time>2025-09-22T16:38:14.676Z</time>
      </trkpt>
      <trkpt lat="45.63787" lon="3.36556">
        <ele>536.24</ele>
        <time>2025-09-22T16:38:18.699Z</time>
      </trkpt>
      <trkpt lat="45.63799" lon="3.36531">
        <ele>537.46</ele>
        <time>2025-09-22T16:38:22.729Z</time>
      </trkpt>
      <trkpt lat="45.63811" lon="3.36506">
        <ele>538.64</ele>
        <time>2025-09-22T16:38:26.767Z</time>
      </trkpt>
      <trkpt lat="45.63824" lon="3.36488">
        <ele>539.47</ele>
        <time>2025-09-22T16:38:30.810Z</time>
      </trkpt>
      <trkpt lat="45.63837" lon="3.36471">
        <ele>540.09</ele>
        <time>2025-09-22T16:38:34.859Z</time>
      </trkpt>
      <trkpt lat="45.63856" lon="3.36456">
        <ele>540.71</ele>
        <time>2025-09-22T16:38:38.916Z</time>
      </trkpt>
      <trkpt lat="45.63875" lon="3.36441">
        <ele>541.36</ele>
        <time>2025-09-22T16:38:42.980Z</time>
      </trkpt>
      <trkpt lat="45.63895" lon="3.36426">
        <ele>542.11</ele>
        <time>2025-09-22T16:38:47.051Z</time>
      </trkpt>
      <trkpt lat="45.63911" lon="3.36408">
        <ele>542.89</ele>
        <time>2025-09-22T16:38:51.129Z</time>
      </trkpt>
      <trkpt lat="45.63927" lon="3.3639">
        <ele>543.71</ele>
        <time>2025-09-22T16:38:55.214Z</time>
      </trkpt>
      <trkpt lat="45.63942" lon="3.36377">
        <ele>544.69</ele>
        <time>2025-09-22T16:38:59.305Z</time>
      </trkpt>
      <trkpt lat="45.63957" lon="3.36364">
        <ele>545.78</ele>
        <time>2025-09-22T16:39:03.402Z</time>
      </trkpt>
      <trkpt lat="45.63967" lon="3.36349">
        <ele>547.09</ele>
        <time>2025-09-22T16:39:07.504Z</time>
      </trkpt>
      <trkpt lat="45.63978" lon="3.36351">
        <ele>548.29</ele>
        <time>2025-09-22T16:39:11.609Z</time>
      </trkpt>
      <trkpt lat="45.63989" lon="3.36353">
        <ele>549.74</ele>
        <time>2025-09-22T16:39:15.718Z</time>
      </trkpt>
      <trkpt lat="45.64" lon="3.3634">
        <ele>551.52</ele>
        <time>2025-09-22T16:39:19.832Z</time>
      </trkpt>
      <trkpt lat="45.64002" lon="3.3634">
        <ele>553.49</ele>
        <time>2025-09-22T16:39:23.946Z</time>
      </trkpt>
      <trkpt lat="45.64014" lon="3.36299">
        <ele>555.89</ele>
        <time>2025-09-22T16:39:28.071Z</time>
      </trkpt>
      <trkpt lat="45.64026" lon="3.36258">
        <ele>558.55</ele>
        <time>2025-09-22T16:39:32.206Z</time>
      </trkpt>
      <trkpt lat="45.64038" lon="3.36216">
        <ele>561.48</ele>
        <time>2025-09-22T16:39:36.352Z</time>
      </trkpt>
      <trkpt lat="45.64042" lon="3.36205">
        <ele>564.62</ele>
        <time>2025-09-22T16:39:40.501Z</time>
      </trkpt>
      <trkpt lat="45.64068" lon="3.36181">
        <ele>568</ele>
        <time>2025-09-22T16:39:44.660Z</time>
      </trkpt>
      <trkpt lat="45.64095" lon="3.36156">
        <ele>571.78</ele>
        <time>2025-09-22T16:39:48.830Z</time>
      </trkpt>
      <trkpt lat="45.64102" lon="3.36149">
        <ele>575.56</ele>
        <time>2025-09-22T16:39:53.003Z</time>
      </trkpt>
      <trkpt lat="45.6413" lon="3.36129">
        <ele>579.78</ele>
        <time>2025-09-22T16:39:57.186Z</time>
      </trkpt>
      <trkpt lat="45.64154" lon="3.36111">
        <ele>584.19</ele>
        <time>2025-09-22T16:40:01.378Z</time>
      </trkpt>
      <trkpt lat="45.64179" lon="3.36082">
        <ele>588.72</ele>
        <time>2025-09-22T16:40:05.581Z</time>
      </trkpt>
      <trkpt lat="45.64186" lon="3.36074">
        <ele>592.95</ele>
        <time>2025-09-22T16:40:09.787Z</time>
      </trkpt>
      <trkpt lat="45.64205" lon="3.36039">
        <ele>597.28</ele>
        <time>2025-09-22T16:40:14.003Z</time>
      </trkpt>
      <trkpt lat="45.64205" lon="3.36038">
        <ele>601.48</ele>
        <time>2025-09-22T16:40:18.220Z</time>
      </trkpt>
      <trkpt lat="45.64193" lon="3.35997">
        <ele>606.29</ele>
        <time>2025-09-22T16:40:22.447Z</time>
      </trkpt>
      <trkpt lat="45.6418" lon="3.35956">
        <ele>611.17</ele>
        <time>2025-09-22T16:40:26.685Z</time>
      </trkpt>
      <trkpt lat="45.64172" lon="3.35931">
        <ele>615.41</ele>
        <time>2025-09-22T16:40:30.929Z</time>
      </trkpt>
      <trkpt lat="45.64148" lon="3.35902">
        <ele>619.37</ele>
        <time>2025-09-22T16:40:35.183Z</time>
      </trkpt>
      <trkpt lat="45.6413" lon="3.35881">
        <ele>622.9</ele>
        <time>2025-09-22T16:40:39.445Z</time>
      </trkpt>
      <trkpt lat="45.64112" lon="3.35844">
        <ele>626.13</ele>
        <time>2025-09-22T16:40:43.718Z</time>
      </trkpt>
      <trkpt lat="45.64095" lon="3.35807">
        <ele>628.95</ele>
        <time>2025-09-22T16:40:48.001Z</time>
      </trkpt>
      <trkpt lat="45.64077" lon="3.3577">
        <ele>631.4</ele>
        <time>2025-09-22T16:40:52.295Z</time>
      </trkpt>
      <trkpt lat="45.64061" lon="3.35737">
        <ele>633.51</ele>
        <time>2025-09-22T16:40:56.598Z</time>
      </trkpt>
      <trkpt lat="45.6404" lon="3.3577">
        <ele>635.1</ele>
        <time>2025-09-22T16:41:00.911Z</time>
      </trkpt>
      <trkpt lat="45.64025" lon="3.35793">
        <ele>636.38</ele>
        <time>2025-09-22T16:41:05.232Z</time>
      </trkpt>
      <trkpt lat="45.64001" lon="3.35822">
        <ele>637.35</ele>
        <time>2025-09-22T16:41:09.563Z</time>
      </trkpt>
      <trkpt lat="45.63977" lon="3.35851">
        <ele>638.01</ele>
        <time>2025-09-22T16:41:13.905Z</time>
      </trkpt>
      <trkpt lat="45.63953" lon="3.3588">
        <ele>638.27</ele>
        <time>2025-09-22T16:41:18.257Z</time>
      </trkpt>
      <trkpt lat="45.63949" lon="3.35885">
        <ele>638.2</ele>
        <time>2025-09-22T16:41:22.611Z</time>
      </trkpt>
      <trkpt lat="45.63922" lon="3.3591">
        <ele>637.71</ele>
        <time>2025-09-22T16:41:26.975Z</time>
      </trkpt>
      <trkpt lat="45.63896" lon="3.35934">
        <ele>636.89</ele>
        <time>2025-09-22T16:41:31.350Z</time>
      </trkpt>
      <trkpt lat="45.63869" lon="3.35958">
        <ele>635.83</ele>
        <time>2025-09-22T16:41:35.735Z</time>
      </trkpt>
      <trkpt lat="45.63869" lon="3.35958">
        <ele>634.58</ele>
        <time>2025-09-22T16:41:40.120Z</time>
      </trkpt>
      <trkpt lat="45.63846" lon="3.35988">
        <ele>633.01</ele>
        <time>2025-09-22T16:41:44.516Z</time>
      </trkpt>
      <trkpt lat="45.63844" lon="3.35991">
        <ele>631.33</ele>
        <time>2025-09-22T16:41:48.913Z</time>
      </trkpt>
      <trkpt lat="45.63815" lon="3.36008">
        <ele>629.3</ele>
        <time>2025-09-22T16:41:53.320Z</time>
      </trkpt>
      <trkpt lat="45.63793" lon="3.36021">
        <ele>627.16</ele>
        <time>2025-09-22T16:41:57.735Z</time>
      </trkpt>
      <trkpt lat="45.63761" lon="3.36025">
        <ele>624.87</ele>
        <time>2025-09-22T16:42:02.161Z</time>
      </trkpt>
      <trkpt lat="45.6373" lon="3.36028">
        <ele>622.59</ele>
        <time>2025-09-22T16:42:06.597Z</time>
      </trkpt>
      <trkpt lat="45.63707" lon="3.36031">
        <ele>620.28</ele>
        <time>2025-09-22T16:42:11.041Z</time>
      </trkpt>
      <trkpt lat="45.63682" lon="3.36004">
        <ele>617.79</ele>
        <time>2025-09-22T16:42:15.495Z</time>
      </trkpt>
      <trkpt lat="45.63673" lon="3.35993">
        <ele>615.49</ele>
        <time>2025-09-22T16:42:19.953Z</time>
      </trkpt>
      <trkpt lat="45.637" lon="3.35969">
        <ele>613.51</ele>
        <time>2025-09-22T16:42:24.422Z</time>
      </trkpt>
      <trkpt lat="45.63726" lon="3.35946">
        <ele>611.45</ele>
        <time>2025-09-22T16:42:28.901Z</time>
      </trkpt>
      <trkpt lat="45.63739" lon="3.35935">
        <ele>609.5</ele>
        <time>2025-09-22T16:42:33.385Z</time>
      </trkpt>
      <trkpt lat="45.63761" lon="3.35903">
        <ele>607.52</ele>
        <time>2025-09-22T16:42:37.880Z</time>
      </trkpt>
      <trkpt lat="45.63782" lon="3.35873">
        <ele>605.67</ele>
        <time>2025-09-22T16:42:42.385Z</time>
      </trkpt>
      <trkpt lat="45.63769" lon="3.35832">
        <ele>603.48</ele>
        <time>2025-09-22T16:42:46.900Z</time>
      </trkpt>
      <trkpt lat="45.63769" lon="3.35832">
        <ele>601.98</ele>
        <time>2025-09-22T16:42:51.415Z</time>
      </trkpt>
      <trkpt lat="45.63784" lon="3.35793">
        <ele>600.77</ele>
        <time>2025-09-22T16:42:55.941Z</time>
      </trkpt>
      <trkpt lat="45.63788" lon="3.35782">
        <ele>599.67</ele>
        <time>2025-09-22T16:43:00.470Z</time>
      </trkpt>
      <trkpt lat="45.6377" lon="3.35746">
        <ele>598.61</ele>
        <time>2025-09-22T16:43:05.009Z</time>
      </trkpt>
      <trkpt lat="45.63754" lon="3.35714">
        <ele>597.92</ele>
        <time>2025-09-22T16:43:09.557Z</time>
      </trkpt>
      <trkpt lat="45.63727" lon="3.3569">
        <ele>597.26</ele>
        <time>2025-09-22T16:43:14.116Z</time>
      </trkpt>
      <trkpt lat="45.63704" lon="3.35671">
        <ele>596.75</ele>
        <time>2025-09-22T16:43:18.684Z</time>
      </trkpt>
      <trkpt lat="45.63673" lon="3.35663">
        <ele>596.13</ele>
        <time>2025-09-22T16:43:23.262Z</time>
      </trkpt>
      <trkpt lat="45.63642" lon="3.35654">
        <ele>595.44</ele>
        <time>2025-09-22T16:43:27.851Z</time>
      </trkpt>
      <trkpt lat="45.63616" lon="3.35647">
        <ele>594.66</ele>
        <time>2025-09-22T16:43:32.449Z</time>
      </trkpt>
      <trkpt lat="45.63587" lon="3.3563">
        <ele>594.08</ele>
        <time>2025-09-22T16:43:37.057Z</time>
      </trkpt>
      <trkpt lat="45.63558" lon="3.35612">
        <ele>593.36</ele>
        <time>2025-09-22T16:43:41.676Z</time>
      </trkpt>
      <trkpt lat="45.63529" lon="3.35595">
        <ele>592.57</ele>
        <time>2025-09-22T16:43:46.305Z</time>
      </trkpt>
      <trkpt lat="45.63509" lon="3.35583">
        <ele>592.17</ele>
        <time>2025-09-22T16:43:50.941Z</time>
      </trkpt>
      <trkpt lat="45.6349" lon="3.35547">
        <ele>592.28</ele>
        <time>2025-09-22T16:43:55.588Z</time>
      </trkpt>
      <trkpt lat="45.63482" lon="3.35534">
        <ele>592.53</ele>
        <time>2025-09-22T16:44:00.239Z</time>
      </trkpt>
      <trkpt lat="45.63465" lon="3.35496">
        <ele>593.15</ele>
        <time>2025-09-22T16:44:04.901Z</time>
      </trkpt>
      <trkpt lat="45.63448" lon="3.35458">
        <ele>594.08</ele>
        <time>2025-09-22T16:44:09.573Z</time>
      </trkpt>
      <trkpt lat="45.63446" lon="3.35454">
        <ele>594.8</ele>
        <time>2025-09-22T16:44:14.246Z</time>
      </trkpt>
      <trkpt lat="45.63415" lon="3.3545">
        <ele>595.46</ele>
        <time>2025-09-22T16:44:18.930Z</time>
      </trkpt>
      <trkpt lat="45.63383" lon="3.35445">
        <ele>596.51</ele>
        <time>2025-09-22T16:44:23.624Z</time>
      </trkpt>
      <trkpt lat="45.63352" lon="3.35441">
        <ele>597.64</ele>
        <time>2025-09-22T16:44:28.329Z</time>
      </trkpt>
      <trkpt lat="45.63325" lon="3.35437">
        <ele>598.82</ele>
        <time>2025-09-22T16:44:33.043Z</time>
      </trkpt>
      <trkpt lat="45.63317" lon="3.35396">
        <ele>600.37</ele>
        <time>2025-09-22T16:44:37.767Z</time>
      </trkpt>
      <trkpt lat="45.63301" lon="3.35384">
        <ele>603.07</ele>
        <time>2025-09-22T16:44:42.497Z</time>
      </trkpt>
      <trkpt lat="45.63285" lon="3.35373">
        <ele>604.46</ele>
        <time>2025-09-22T16:44:47.233Z</time>
      </trkpt>
      <trkpt lat="45.63292" lon="3.35345">
        <ele>605.99</ele>
        <time>2025-09-22T16:44:51.976Z</time>
      </trkpt>
      <trkpt lat="45.63292" lon="3.3533">
        <ele>607.43</ele>
        <time>2025-09-22T16:44:56.722Z</time>
      </trkpt>
      <trkpt lat="45.63283" lon="3.35302">
        <ele>608.74</ele>
        <time>2025-09-22T16:45:01.475Z</time>
      </trkpt>
      <trkpt lat="45.63281" lon="3.35276">
        <ele>610.17</ele>
        <time>2025-09-22T16:45:06.234Z</time>
      </trkpt>
      <trkpt lat="45.63279" lon="3.35239">
        <ele>611.61</ele>
        <time>2025-09-22T16:45:11.002Z</time>
      </trkpt>
      <trkpt lat="45.63277" lon="3.35202">
        <ele>613.08</ele>
        <time>2025-09-22T16:45:15.779Z</time>
      </trkpt>
      <trkpt lat="45.63274" lon="3.35165">
        <ele>614.37</ele>
        <time>2025-09-22T16:45:20.564Z</time>
      </trkpt>
      <trkpt lat="45.63266" lon="3.35137">
        <ele>615.37</ele>
        <time>2025-09-22T16:45:25.357Z</time>
      </trkpt>
      <trkpt lat="45.63255" lon="3.35122">
        <ele>616.12</ele>
        <time>2025-09-22T16:45:30.155Z</time>
      </trkpt>
      <trkpt lat="45.63229" lon="3.35113">
        <ele>616.5</ele>
        <time>2025-09-22T16:45:34.961Z</time>
      </trkpt>
      <trkpt lat="45.63206" lon="3.35113">
        <ele>616.84</ele>
        <time>2025-09-22T16:45:39.775Z</time>
      </trkpt>
      <trkpt lat="45.63186" lon="3.35117">
        <ele>617.16</ele>
        <time>2025-09-22T16:45:44.596Z</time>
      </trkpt>
      <trkpt lat="45.63167" lon="3.35122">
        <ele>617.42</ele>
        <time>2025-09-22T16:45:49.423Z</time>
      </trkpt>
      <trkpt lat="45.63153" lon="3.35107">
        <ele>617.66</ele>
        <time>2025-09-22T16:45:54.256Z</time>
      </trkpt>
      <trkpt lat="45.63139" lon="3.35092">
        <ele>617.83</ele>
        <time>2025-09-22T16:45:59.095Z</time>
      </trkpt>
      <trkpt lat="45.63122" lon="3.35091">
        <ele>617.78</ele>
        <time>2025-09-22T16:46:03.940Z</time>
      </trkpt>
      <trkpt lat="45.63105" lon="3.35089">
        <ele>617.6</ele>
        <time>2025-09-22T16:46:08.790Z</time>
      </trkpt>
      <trkpt lat="45.63083" lon="3.35085">
        <ele>617.37</ele>
        <time>2025-09-22T16:46:13.648Z</time>
      </trkpt>
      <trkpt lat="45.63056" lon="3.35074">
        <ele>617.1</ele>
        <time>2025-09-22T16:46:18.515Z</time>
      </trkpt>
      <trkpt lat="45.63047" lon="3.35068">
        <ele>616.79</ele>
        <time>2025-09-22T16:46:23.386Z</time>
      </trkpt>
      <trkpt lat="45.63043" lon="3.35055">
        <ele>616.44</ele>
        <time>2025-09-22T16:46:28.260Z</time>
      </trkpt>
      <trkpt lat="45.63039" lon="3.35026">
        <ele>616.09</ele>
        <time>2025-09-22T16:46:33.141Z</time>
      </trkpt>
      <trkpt lat="45.63036" lon="3.34997">
        <ele>615.47</ele>
        <time>2025-09-22T16:46:38.029Z</time>
      </trkpt>
      <trkpt lat="45.63025" lon="3.3497">
        <ele>614.57</ele>
        <time>2025-09-22T16:46:42.924Z</time>
      </trkpt>
      <trkpt lat="45.63015" lon="3.34944">
        <ele>613.53</ele>
        <time>2025-09-22T16:46:47.826Z</time>
      </trkpt>
      <trkpt lat="45.63007" lon="3.34905">
        <ele>612.2</ele>
        <time>2025-09-22T16:46:52.738Z</time>
      </trkpt>
      <trkpt lat="45.62983" lon="3.34898">
        <ele>610.72</ele>
        <time>2025-09-22T16:46:57.658Z</time>
      </trkpt>
      <trkpt lat="45.62965" lon="3.34936">
        <ele>609.48</ele>
        <time>2025-09-22T16:47:02.588Z</time>
      </trkpt>
      <trkpt lat="45.6296" lon="3.34948">
        <ele>608.03</ele>
        <time>2025-09-22T16:47:07.521Z</time>
      </trkpt>
      <trkpt lat="45.62944" lon="3.34987">
        <ele>606.5</ele>
        <time>2025-09-22T16:47:12.465Z</time>
      </trkpt>
      <trkpt lat="45.62929" lon="3.35026">
        <ele>604.69</ele>
        <time>2025-09-22T16:47:17.419Z</time>
      </trkpt>
      <trkpt lat="45.62922" lon="3.35042">
        <ele>602.7</ele>
        <time>2025-09-22T16:47:22.378Z</time>
      </trkpt>
      <trkpt lat="45.62925" lon="3.35073">
        <ele>600.5</ele>
        <time>2025-09-22T16:47:27.344Z</time>
      </trkpt>
      <trkpt lat="45.62924" lon="3.35118">
        <ele>598.04</ele>
        <time>2025-09-22T16:47:32.321Z</time>
      </trkpt>
      <trkpt lat="45.62924" lon="3.35139">
        <ele>595.58</ele>
        <time>2025-09-22T16:47:37.303Z</time>
      </trkpt>
      <trkpt lat="45.62928" lon="3.35182">
        <ele>592.78</ele>
        <time>2025-09-22T16:47:42.295Z</time>
      </trkpt>
      <trkpt lat="45.62935" lon="3.35211">
        <ele>590.03</ele>
        <time>2025-09-22T16:47:47.294Z</time>
      </trkpt>
      <trkpt lat="45.62922" lon="3.35251">
        <ele>587.06</ele>
        <time>2025-09-22T16:47:52.303Z</time>
      </trkpt>
      <trkpt lat="45.62913" lon="3.35278">
        <ele>584.26</ele>
        <time>2025-09-22T16:47:57.319Z</time>
      </trkpt>
      <trkpt lat="45.62892" lon="3.35312">
        <ele>581.31</ele>
        <time>2025-09-22T16:48:02.346Z</time>
      </trkpt>
      <trkpt lat="45.62883" lon="3.35327">
        <ele>578.53</ele>
        <time>2025-09-22T16:48:07.378Z</time>
      </trkpt>
      <trkpt lat="45.62852" lon="3.35336">
        <ele>575.64</ele>
        <time>2025-09-22T16:48:12.420Z</time>
      </trkpt>
      <trkpt lat="45.62844" lon="3.35339">
        <ele>572.88</ele>
        <time>2025-09-22T16:48:17.465Z</time>
      </trkpt>
      <trkpt lat="45.62818" lon="3.35364">
        <ele>570.24</ele>
        <time>2025-09-22T16:48:22.520Z</time>
      </trkpt>
      <trkpt lat="45.62818" lon="3.35365">
        <ele>567.39</ele>
        <time>2025-09-22T16:48:27.575Z</time>
      </trkpt>
      <trkpt lat="45.62794" lon="3.35387">
        <ele>564.65</ele>
        <time>2025-09-22T16:48:32.640Z</time>
      </trkpt>
      <trkpt lat="45.62763" lon="3.35392">
        <ele>561.47</ele>
        <time>2025-09-22T16:48:37.715Z</time>
      </trkpt>
      <trkpt lat="45.6276" lon="3.35392">
        <ele>558.43</ele>
        <time>2025-09-22T16:48:42.791Z</time>
      </trkpt>
      <trkpt lat="45.62732" lon="3.35409">
        <ele>554.91</ele>
        <time>2025-09-22T16:48:47.878Z</time>
      </trkpt>
      <trkpt lat="45.627" lon="3.35415">
        <ele>551.29</ele>
        <time>2025-09-22T16:48:52.975Z</time>
      </trkpt>
      <trkpt lat="45.62677" lon="3.35419">
        <ele>547.89</ele>
        <time>2025-09-22T16:48:58.080Z</time>
      </trkpt>
      <trkpt lat="45.62646" lon="3.35412">
        <ele>544.57</ele>
        <time>2025-09-22T16:49:03.195Z</time>
      </trkpt>
      <trkpt lat="45.62628" lon="3.35408">
        <ele>541.29</ele>
        <time>2025-09-22T16:49:08.316Z</time>
      </trkpt>
      <trkpt lat="45.62601" lon="3.35386">
        <ele>537.82</ele>
        <time>2025-09-22T16:49:13.448Z</time>
      </trkpt>
      <trkpt lat="45.62577" lon="3.35367">
        <ele>534.37</ele>
        <time>2025-09-22T16:49:18.589Z</time>
      </trkpt>
      <trkpt lat="45.62554" lon="3.35337">
        <ele>531.02</ele>
        <time>2025-09-22T16:49:23.740Z</time>
      </trkpt>
      <trkpt lat="45.62542" lon="3.3532">
        <ele>527.88</ele>
        <time>2025-09-22T16:49:28.897Z</time>
      </trkpt>
      <trkpt lat="45.62518" lon="3.3529">
        <ele>524.66</ele>
        <time>2025-09-22T16:49:34.065Z</time>
      </trkpt>
      <trkpt lat="45.62517" lon="3.35289">
        <ele>521.69</ele>
        <time>2025-09-22T16:49:39.233Z</time>
      </trkpt>
      <trkpt lat="45.6249" lon="3.35267">
        <ele>518.48</ele>
        <time>2025-09-22T16:49:44.412Z</time>
      </trkpt>
      <trkpt lat="45.62472" lon="3.35254">
        <ele>515.32</ele>
        <time>2025-09-22T16:49:49.597Z</time>
      </trkpt>
      <trkpt lat="45.62465" lon="3.35237">
        <ele>512.26</ele>
        <time>2025-09-22T16:49:54.787Z</time>
      </trkpt>
      <trkpt lat="45.62496" lon="3.35237">
        <ele>509.6</ele>
        <time>2025-09-22T16:49:59.987Z</time>
      </trkpt>
      <trkpt lat="45.62503" lon="3.35237">
        <ele>506.61</ele>
        <time>2025-09-22T16:50:05.190Z</time>
      </trkpt>
      <trkpt lat="45.62528" lon="3.35235">
        <ele>503.55</ele>
        <time>2025-09-22T16:50:10.401Z</time>
      </trkpt>
      <trkpt lat="45.62499" lon="3.35219">
        <ele>500.19</ele>
        <time>2025-09-22T16:50:15.622Z</time>
      </trkpt>
      <trkpt lat="45.6249" lon="3.35214">
        <ele>496.83</ele>
        <time>2025-09-22T16:50:20.846Z</time>
      </trkpt>
      <trkpt lat="45.62475" lon="3.3519">
        <ele>493.33</ele>
        <time>2025-09-22T16:50:26.078Z</time>
      </trkpt>
      <trkpt lat="45.62454" lon="3.35166">
        <ele>489.57</ele>
        <time>2025-09-22T16:50:31.319Z</time>
      </trkpt>
      <trkpt lat="45.62426" lon="3.35145">
        <ele>485.56</ele>
        <time>2025-09-22T16:50:36.570Z</time>
      </trkpt>
      <trkpt lat="45.62398" lon="3.35125">
        <ele>481.62</ele>
        <time>2025-09-22T16:50:41.832Z</time>
      </trkpt>
      <trkpt lat="45.62391" lon="3.35119">
        <ele>477.92</ele>
        <time>2025-09-22T16:50:47.096Z</time>
      </trkpt>
      <trkpt lat="45.6236" lon="3.35112">
        <ele>473.95</ele>
        <time>2025-09-22T16:50:52.371Z</time>
      </trkpt>
      <trkpt lat="45.62356" lon="3.35111">
        <ele>470.3</ele>
        <time>2025-09-22T16:50:57.647Z</time>
      </trkpt>
      <trkpt lat="45.62329" lon="3.35134">
        <ele>466.42</ele>
        <time>2025-09-22T16:51:02.934Z</time>
      </trkpt>
      <trkpt lat="45.62327" lon="3.35137">
        <ele>462.88</ele>
        <time>2025-09-22T16:51:08.222Z</time>
      </trkpt>
      <trkpt lat="45.62303" lon="3.35157">
        <ele>459.15</ele>
        <time>2025-09-22T16:51:13.519Z</time>
      </trkpt>
      <trkpt lat="45.62279" lon="3.35186">
        <ele>455.47</ele>
        <time>2025-09-22T16:51:18.826Z</time>
      </trkpt>
      <trkpt lat="45.62271" lon="3.35196">
        <ele>452.36</ele>
        <time>2025-09-22T16:51:24.137Z</time>
      </trkpt>
      <trkpt lat="45.62247" lon="3.35224">
        <ele>449.3</ele>
        <time>2025-09-22T16:51:29.459Z</time>
      </trkpt>
      <trkpt lat="45.62222" lon="3.35252">
        <ele>446.52</ele>
        <time>2025-09-22T16:51:34.791Z</time>
      </trkpt>
      <trkpt lat="45.62216" lon="3.35259">
        <ele>444.44</ele>
        <time>2025-09-22T16:51:40.126Z</time>
      </trkpt>
      <trkpt lat="45.62185" lon="3.35257">
        <ele>442.41</ele>
        <time>2025-09-22T16:51:45.471Z</time>
      </trkpt>
      <trkpt lat="45.62168" lon="3.35256">
        <ele>441.17</ele>
        <time>2025-09-22T16:51:50.822Z</time>
      </trkpt>
      <trkpt lat="45.62137" lon="3.35256">
        <ele>440.51</ele>
        <time>2025-09-22T16:51:56.183Z</time>
      </trkpt>
      <trkpt lat="45.6212" lon="3.35257">
        <ele>440.43</ele>
        <time>2025-09-22T16:52:01.550Z</time>
      </trkpt>
      <trkpt lat="45.62103" lon="3.35257">
        <ele>440.88</ele>
        <time>2025-09-22T16:52:06.922Z</time>
      </trkpt>
      <trkpt lat="45.62093" lon="3.35258">
        <ele>441.89</ele>
        <time>2025-09-22T16:52:12.298Z</time>
      </trkpt>
      <trkpt lat="45.62082" lon="3.353">
        <ele>443.43</ele>
        <time>2025-09-22T16:52:17.684Z</time>
      </trkpt>
      <trkpt lat="45.62075" lon="3.35329">
        <ele>445.59</ele>
        <time>2025-09-22T16:52:23.077Z</time>
      </trkpt>
      <trkpt lat="45.6206" lon="3.35367">
        <ele>448.47</ele>
        <time>2025-09-22T16:52:28.481Z</time>
      </trkpt>
      <trkpt lat="45.62065" lon="3.35394">
        <ele>451.49</ele>
        <time>2025-09-22T16:52:33.891Z</time>
      </trkpt>
      <trkpt lat="45.62052" lon="3.35412">
        <ele>455.15</ele>
        <time>2025-09-22T16:52:39.307Z</time>
      </trkpt>
      <trkpt lat="45.62033" lon="3.35399">
        <ele>459.1</ele>
        <time>2025-09-22T16:52:44.730Z</time>
      </trkpt>
      <trkpt lat="45.62008" lon="3.35423">
        <ele>463.69</ele>
        <time>2025-09-22T16:52:50.163Z</time>
      </trkpt>
      <trkpt lat="45.61997" lon="3.35443">
        <ele>467.91</ele>
        <time>2025-09-22T16:52:55.602Z</time>
      </trkpt>
      <trkpt lat="45.61982" lon="3.35475">
        <ele>471.91</ele>
        <time>2025-09-22T16:53:01.050Z</time>
      </trkpt>
      <trkpt lat="45.61959" lon="3.35505">
        <ele>475.78</ele>
        <time>2025-09-22T16:53:06.509Z</time>
      </trkpt>
      <trkpt lat="45.61939" lon="3.35531">
        <ele>479.48</ele>
        <time>2025-09-22T16:53:11.977Z</time>
      </trkpt>
      <trkpt lat="45.61939" lon="3.35529">
        <ele>482.53</ele>
        <time>2025-09-22T16:53:17.445Z</time>
      </trkpt>
      <trkpt lat="45.61908" lon="3.35526">
        <ele>485.52</ele>
        <time>2025-09-22T16:53:22.923Z</time>
      </trkpt>
      <trkpt lat="45.61877" lon="3.35523">
        <ele>488</ele>
        <time>2025-09-22T16:53:28.412Z</time>
      </trkpt>
      <trkpt lat="45.61847" lon="3.35523">
        <ele>490.06</ele>
        <time>2025-09-22T16:53:33.911Z</time>
      </trkpt>
      <trkpt lat="45.61816" lon="3.35523">
        <ele>491.71</ele>
        <time>2025-09-22T16:53:39.420Z</time>
      </trkpt>
      <trkpt lat="45.61785" lon="3.35523">
        <ele>492.86</ele>
        <time>2025-09-22T16:53:44.940Z</time>
      </trkpt>
      <trkpt lat="45.61759" lon="3.3552">
        <ele>493.54</ele>
        <time>2025-09-22T16:53:50.468Z</time>
      </trkpt>
      <trkpt lat="45.61734" lon="3.35516">
        <ele>494.02</ele>
        <time>2025-09-22T16:53:56.005Z</time>
      </trkpt>
      <trkpt lat="45.61714" lon="3.3551">
        <ele>493.93</ele>
        <time>2025-09-22T16:54:01.548Z</time>
      </trkpt>
      <trkpt lat="45.61695" lon="3.35504">
        <ele>493.25</ele>
        <time>2025-09-22T16:54:07.098Z</time>
      </trkpt>
      <trkpt lat="45.61675" lon="3.35486">
        <ele>491.84</ele>
        <time>2025-09-22T16:54:12.656Z</time>
      </trkpt>
      <trkpt lat="45.61654" lon="3.35469">
        <ele>490.02</ele>
        <time>2025-09-22T16:54:18.222Z</time>
      </trkpt>
      <trkpt lat="45.61644" lon="3.35436">
        <ele>487.57</ele>
        <time>2025-09-22T16:54:23.796Z</time>
      </trkpt>
      <trkpt lat="45.61634" lon="3.35403">
        <ele>484.71</ele>
        <time>2025-09-22T16:54:29.379Z</time>
      </trkpt>
      <trkpt lat="45.61624" lon="3.35371">
        <ele>481.42</ele>
        <time>2025-09-22T16:54:34.970Z</time>
      </trkpt>
      <trkpt lat="45.61605" lon="3.35339">
        <ele>477.81</ele>
        <time>2025-09-22T16:54:40.571Z</time>
      </trkpt>
      <trkpt lat="45.61586" lon="3.35307">
        <ele>473.88</ele>
        <time>2025-09-22T16:54:46.182Z</time>
      </trkpt>
      <trkpt lat="45.61566" lon="3.35275">
        <ele>469.88</ele>
        <time>2025-09-22T16:54:51.802Z</time>
      </trkpt>
      <trkpt lat="45.61547" lon="3.35244">
        <ele>465.92</ele>
        <time>2025-09-22T16:54:57.432Z</time>
      </trkpt>
      <trkpt lat="45.61525" lon="3.35213">
        <ele>461.96</ele>
        <time>2025-09-22T16:55:03.072Z</time>
      </trkpt>
      <trkpt lat="45.61503" lon="3.35183">
        <ele>458.13</ele>
        <time>2025-09-22T16:55:08.723Z</time>
      </trkpt>
      <trkpt lat="45.61481" lon="3.35152">
        <ele>454.47</ele>
        <time>2025-09-22T16:55:14.384Z</time>
      </trkpt>
      <trkpt lat="45.61459" lon="3.35122">
        <ele>451.06</ele>
        <time>2025-09-22T16:55:20.055Z</time>
      </trkpt>
      <trkpt lat="45.61438" lon="3.35115">
        <ele>448.22</ele>
        <time>2025-09-22T16:55:25.733Z</time>
      </trkpt>
      <trkpt lat="45.61416" lon="3.35116">
        <ele>445.59</ele>
        <time>2025-09-22T16:55:31.419Z</time>
      </trkpt>
      <trkpt lat="45.61395" lon="3.35117">
        <ele>443.11</ele>
        <time>2025-09-22T16:55:37.112Z</time>
      </trkpt>
      <trkpt lat="45.61388" lon="3.35109">
        <ele>440.67</ele>
        <time>2025-09-22T16:55:42.808Z</time>
      </trkpt>
      <trkpt lat="45.61384" lon="3.35115">
        <ele>438.48</ele>
        <time>2025-09-22T16:55:48.506Z</time>
      </trkpt>
      <trkpt lat="45.61378" lon="3.35115">
        <ele>436.4</ele>
        <time>2025-09-22T16:55:54.206Z</time>
      </trkpt>
      <trkpt lat="45.61354" lon="3.35113">
        <ele>434.44</ele>
        <time>2025-09-22T16:55:59.914Z</time>
      </trkpt>
      <trkpt lat="45.61339" lon="3.35106">
        <ele>432.69</ele>
        <time>2025-09-22T16:56:05.627Z</time>
      </trkpt>
      <trkpt lat="45.61324" lon="3.35098">
        <ele>431.17</ele>
        <time>2025-09-22T16:56:11.345Z</time>
      </trkpt>
      <trkpt lat="45.6132" lon="3.35097">
        <ele>429.89</ele>
        <time>2025-09-22T16:56:17.065Z</time>
      </trkpt>
      <trkpt lat="45.6132" lon="3.35097">
        <ele>428.77</ele>
        <time>2025-09-22T16:56:22.785Z</time>
      </trkpt>
      <trkpt lat="45.613" lon="3.35094">
        <ele>427.74</ele>
        <time>2025-09-22T16:56:28.511Z</time>
      </trkpt>
      <trkpt lat="45.61283" lon="3.35096">
        <ele>426.9</ele>
        <time>2025-09-22T16:56:34.243Z</time>
      </trkpt>
      <trkpt lat="45.61268" lon="3.35107">
        <ele>426.25</ele>
        <time>2025-09-22T16:56:39.981Z</time>
      </trkpt>
      <trkpt lat="45.61251" lon="3.35115">
        <ele>425.71</ele>
        <time>2025-09-22T16:56:45.725Z</time>
      </trkpt>
      <trkpt lat="45.61227" lon="3.35128">
        <ele>425.29</ele>
        <time>2025-09-22T16:56:51.477Z</time>
      </trkpt>
      <trkpt lat="45.61214" lon="3.35087">
        <ele>424.97</ele>
        <time>2025-09-22T16:56:57.240Z</time>
      </trkpt>
      <trkpt lat="45.61213" lon="3.35084">
        <ele>424.9</ele>
        <time>2025-09-22T16:57:03.004Z</time>
      </trkpt>
      <trkpt lat="45.61203" lon="3.35042">
        <ele>424.89</ele>
        <time>2025-09-22T16:57:08.778Z</time>
      </trkpt>
      <trkpt lat="45.61176" lon="3.35065">
        <ele>425.13</ele>
        <time>2025-09-22T16:57:14.562Z</time>
      </trkpt>
      <trkpt lat="45.61149" lon="3.35087">
        <ele>425.3</ele>
        <time>2025-09-22T16:57:20.357Z</time>
      </trkpt>
    </trkseg>
  </trk>
</gpx>